<?xml version="1.0" encoding="UTF-8" standalone="no" ?>
<gpx xmlns="http://www.topografix.com/GPX/1/1" xmlns:xsi="http://www.w3.org/2001/XMLSchema-instance" xsi:schemaLocation="http://www.topografix.com/GPX/1/1 http://www.topografix.com/GPX/1/1/gpx.xsd" version="1.1" creator="VisuGPX - https://www.visugpx.com">
  <metadata>
    <name>Foulées de l'Arche 2016 - 10km</name>
    <desc><![CDATA[Foulées de l'Arche 2016 - 10km]]></desc>
  </metadata>
  <trk>
    <name><![CDATA[Running 1/5/16 10:10 am]]></name>
    <trkseg>
      <trkpt lat="47.42609" lon="0.70897">
        <ele>105</ele>
        <time>2016-05-01T08:10:07Z</time>
      </trkpt>
      <trkpt lat="47.42607" lon="0.70901">
        <ele>105</ele>
        <time>2016-05-01T08:10:08Z</time>
      </trkpt>
      <trkpt lat="47.42598" lon="0.70907">
        <ele>105</ele>
        <time>2016-05-01T08:10:14Z</time>
      </trkpt>
      <trkpt lat="47.42589" lon="0.70916">
        <ele>105.1</ele>
        <time>2016-05-01T08:10:19Z</time>
      </trkpt>
      <trkpt lat="47.42581" lon="0.70928">
        <ele>105.2</ele>
        <time>2016-05-01T08:10:23Z</time>
      </trkpt>
      <trkpt lat="47.42573" lon="0.70934">
        <ele>105.3</ele>
        <time>2016-05-01T08:10:26Z</time>
      </trkpt>
      <trkpt lat="47.42563" lon="0.70943">
        <ele>105.4</ele>
        <time>2016-05-01T08:10:30Z</time>
      </trkpt>
      <trkpt lat="47.42555" lon="0.7095">
        <ele>105.4</ele>
        <time>2016-05-01T08:10:33Z</time>
      </trkpt>
      <trkpt lat="47.42545" lon="0.70957">
        <ele>105.4</ele>
        <time>2016-05-01T08:10:37Z</time>
      </trkpt>
      <trkpt lat="47.42536" lon="0.70961">
        <ele>105.4</ele>
        <time>2016-05-01T08:10:40Z</time>
      </trkpt>
      <trkpt lat="47.42525" lon="0.70968">
        <ele>105.4</ele>
        <time>2016-05-01T08:10:44Z</time>
      </trkpt>
      <trkpt lat="47.42516" lon="0.70971">
        <ele>105.4</ele>
        <time>2016-05-01T08:10:47Z</time>
      </trkpt>
      <trkpt lat="47.42506" lon="0.70973">
        <ele>105.4</ele>
        <time>2016-05-01T08:10:50Z</time>
      </trkpt>
      <trkpt lat="47.42496" lon="0.70975">
        <ele>105.4</ele>
        <time>2016-05-01T08:10:53Z</time>
      </trkpt>
      <trkpt lat="47.42486" lon="0.70976">
        <ele>105.3</ele>
        <time>2016-05-01T08:10:56Z</time>
      </trkpt>
      <trkpt lat="47.42474" lon="0.70977">
        <ele>105.2</ele>
        <time>2016-05-01T08:11:00Z</time>
      </trkpt>
      <trkpt lat="47.42462" lon="0.70977">
        <ele>105.1</ele>
        <time>2016-05-01T08:11:04Z</time>
      </trkpt>
      <trkpt lat="47.42453" lon="0.70977">
        <ele>105</ele>
        <time>2016-05-01T08:11:07Z</time>
      </trkpt>
      <trkpt lat="47.42442" lon="0.70977">
        <ele>105</ele>
        <time>2016-05-01T08:11:11Z</time>
      </trkpt>
      <trkpt lat="47.42431" lon="0.70977">
        <ele>105</ele>
        <time>2016-05-01T08:11:15Z</time>
      </trkpt>
      <trkpt lat="47.42422" lon="0.70977">
        <ele>105.1</ele>
        <time>2016-05-01T08:11:18Z</time>
      </trkpt>
      <trkpt lat="47.4241" lon="0.70977">
        <ele>105.2</ele>
        <time>2016-05-01T08:11:22Z</time>
      </trkpt>
      <trkpt lat="47.42399" lon="0.70978">
        <ele>105.3</ele>
        <time>2016-05-01T08:11:26Z</time>
      </trkpt>
      <trkpt lat="47.42388" lon="0.70975">
        <ele>105.4</ele>
        <time>2016-05-01T08:11:30Z</time>
      </trkpt>
      <trkpt lat="47.42381" lon="0.70964">
        <ele>105.5</ele>
        <time>2016-05-01T08:11:34Z</time>
      </trkpt>
      <trkpt lat="47.42376" lon="0.70951">
        <ele>105.5</ele>
        <time>2016-05-01T08:11:37Z</time>
      </trkpt>
      <trkpt lat="47.4237" lon="0.70938">
        <ele>105.6</ele>
        <time>2016-05-01T08:11:40Z</time>
      </trkpt>
      <trkpt lat="47.42364" lon="0.70924">
        <ele>105.7</ele>
        <time>2016-05-01T08:11:45Z</time>
      </trkpt>
      <trkpt lat="47.42361" lon="0.70909">
        <ele>105.8</ele>
        <time>2016-05-01T08:11:49Z</time>
      </trkpt>
      <trkpt lat="47.42356" lon="0.70898">
        <ele>105.9</ele>
        <time>2016-05-01T08:11:52Z</time>
      </trkpt>
      <trkpt lat="47.42352" lon="0.70884">
        <ele>106</ele>
        <time>2016-05-01T08:11:56Z</time>
      </trkpt>
      <trkpt lat="47.42347" lon="0.70871">
        <ele>106</ele>
        <time>2016-05-01T08:11:59Z</time>
      </trkpt>
      <trkpt lat="47.42342" lon="0.70858">
        <ele>105.9</ele>
        <time>2016-05-01T08:12:02Z</time>
      </trkpt>
      <trkpt lat="47.42333" lon="0.70846">
        <ele>105.8</ele>
        <time>2016-05-01T08:12:06Z</time>
      </trkpt>
      <trkpt lat="47.42323" lon="0.70846">
        <ele>105.7</ele>
        <time>2016-05-01T08:12:09Z</time>
      </trkpt>
      <trkpt lat="47.42314" lon="0.70847">
        <ele>105.6</ele>
        <time>2016-05-01T08:12:12Z</time>
      </trkpt>
      <trkpt lat="47.42305" lon="0.70848">
        <ele>105.5</ele>
        <time>2016-05-01T08:12:15Z</time>
      </trkpt>
      <trkpt lat="47.42292" lon="0.70848">
        <ele>105.5</ele>
        <time>2016-05-01T08:12:19Z</time>
      </trkpt>
      <trkpt lat="47.42283" lon="0.70847">
        <ele>105.4</ele>
        <time>2016-05-01T08:12:22Z</time>
      </trkpt>
      <trkpt lat="47.42273" lon="0.70847">
        <ele>105.3</ele>
        <time>2016-05-01T08:12:25Z</time>
      </trkpt>
      <trkpt lat="47.42263" lon="0.70847">
        <ele>105.2</ele>
        <time>2016-05-01T08:12:28Z</time>
      </trkpt>
      <trkpt lat="47.42254" lon="0.70848">
        <ele>105.1</ele>
        <time>2016-05-01T08:12:31Z</time>
      </trkpt>
      <trkpt lat="47.42245" lon="0.70849">
        <ele>105.3</ele>
        <time>2016-05-01T08:12:35Z</time>
      </trkpt>
      <trkpt lat="47.42235" lon="0.70851">
        <ele>105.3</ele>
        <time>2016-05-01T08:12:38Z</time>
      </trkpt>
      <trkpt lat="47.42226" lon="0.70855">
        <ele>105.3</ele>
        <time>2016-05-01T08:12:41Z</time>
      </trkpt>
      <trkpt lat="47.42219" lon="0.70862">
        <ele>105.3</ele>
        <time>2016-05-01T08:12:44Z</time>
      </trkpt>
      <trkpt lat="47.42214" lon="0.70875">
        <ele>105.3</ele>
        <time>2016-05-01T08:12:48Z</time>
      </trkpt>
      <trkpt lat="47.42213" lon="0.7089">
        <ele>105.3</ele>
        <time>2016-05-01T08:12:51Z</time>
      </trkpt>
      <trkpt lat="47.42211" lon="0.70905">
        <ele>105.2</ele>
        <time>2016-05-01T08:12:54Z</time>
      </trkpt>
      <trkpt lat="47.42208" lon="0.70919">
        <ele>105.1</ele>
        <time>2016-05-01T08:12:57Z</time>
      </trkpt>
      <trkpt lat="47.42203" lon="0.70935">
        <ele>105</ele>
        <time>2016-05-01T08:13:01Z</time>
      </trkpt>
      <trkpt lat="47.42201" lon="0.70948">
        <ele>104.9</ele>
        <time>2016-05-01T08:13:04Z</time>
      </trkpt>
      <trkpt lat="47.42198" lon="0.70963">
        <ele>104.8</ele>
        <time>2016-05-01T08:13:08Z</time>
      </trkpt>
      <trkpt lat="47.42195" lon="0.7098">
        <ele>104.4</ele>
        <time>2016-05-01T08:13:12Z</time>
      </trkpt>
      <trkpt lat="47.42193" lon="0.70993">
        <ele>104.2</ele>
        <time>2016-05-01T08:13:15Z</time>
      </trkpt>
      <trkpt lat="47.42191" lon="0.7101">
        <ele>104</ele>
        <time>2016-05-01T08:13:19Z</time>
      </trkpt>
      <trkpt lat="47.42188" lon="0.71023">
        <ele>103.8</ele>
        <time>2016-05-01T08:13:22Z</time>
      </trkpt>
      <trkpt lat="47.42187" lon="0.71039">
        <ele>103.6</ele>
        <time>2016-05-01T08:13:26Z</time>
      </trkpt>
      <trkpt lat="47.42186" lon="0.71057">
        <ele>103.5</ele>
        <time>2016-05-01T08:13:30Z</time>
      </trkpt>
      <trkpt lat="47.42186" lon="0.7107">
        <ele>103.3</ele>
        <time>2016-05-01T08:13:33Z</time>
      </trkpt>
      <trkpt lat="47.42185" lon="0.71087">
        <ele>103.1</ele>
        <time>2016-05-01T08:13:37Z</time>
      </trkpt>
      <trkpt lat="47.42183" lon="0.71101">
        <ele>102.9</ele>
        <time>2016-05-01T08:13:40Z</time>
      </trkpt>
      <trkpt lat="47.4218" lon="0.71117">
        <ele>102.7</ele>
        <time>2016-05-01T08:13:44Z</time>
      </trkpt>
      <trkpt lat="47.42174" lon="0.71133">
        <ele>102.5</ele>
        <time>2016-05-01T08:13:48Z</time>
      </trkpt>
      <trkpt lat="47.4217" lon="0.71146">
        <ele>102.5</ele>
        <time>2016-05-01T08:13:51Z</time>
      </trkpt>
      <trkpt lat="47.42163" lon="0.71159">
        <ele>102.3</ele>
        <time>2016-05-01T08:13:55Z</time>
      </trkpt>
      <trkpt lat="47.42155" lon="0.71171">
        <ele>102.1</ele>
        <time>2016-05-01T08:13:59Z</time>
      </trkpt>
      <trkpt lat="47.42149" lon="0.71185">
        <ele>102.1</ele>
        <time>2016-05-01T08:14:03Z</time>
      </trkpt>
      <trkpt lat="47.42145" lon="0.712">
        <ele>102.1</ele>
        <time>2016-05-01T08:14:07Z</time>
      </trkpt>
      <trkpt lat="47.42142" lon="0.71216">
        <ele>102.1</ele>
        <time>2016-05-01T08:14:11Z</time>
      </trkpt>
      <trkpt lat="47.42138" lon="0.71232">
        <ele>102.2</ele>
        <time>2016-05-01T08:14:15Z</time>
      </trkpt>
      <trkpt lat="47.42136" lon="0.71245">
        <ele>102.3</ele>
        <time>2016-05-01T08:14:18Z</time>
      </trkpt>
      <trkpt lat="47.42128" lon="0.71259">
        <ele>102.4</ele>
        <time>2016-05-01T08:14:22Z</time>
      </trkpt>
      <trkpt lat="47.42118" lon="0.71265">
        <ele>102.5</ele>
        <time>2016-05-01T08:14:26Z</time>
      </trkpt>
      <trkpt lat="47.42108" lon="0.71269">
        <ele>102.5</ele>
        <time>2016-05-01T08:14:30Z</time>
      </trkpt>
      <trkpt lat="47.42099" lon="0.71271">
        <ele>102.5</ele>
        <time>2016-05-01T08:14:33Z</time>
      </trkpt>
      <trkpt lat="47.42087" lon="0.71273">
        <ele>102.5</ele>
        <time>2016-05-01T08:14:36Z</time>
      </trkpt>
      <trkpt lat="47.42078" lon="0.71275">
        <ele>102.5</ele>
        <time>2016-05-01T08:14:39Z</time>
      </trkpt>
      <trkpt lat="47.42067" lon="0.7128">
        <ele>102</ele>
        <time>2016-05-01T08:14:43Z</time>
      </trkpt>
      <trkpt lat="47.42058" lon="0.71285">
        <ele>101.5</ele>
        <time>2016-05-01T08:14:46Z</time>
      </trkpt>
      <trkpt lat="47.42048" lon="0.71288">
        <ele>101.1</ele>
        <time>2016-05-01T08:14:49Z</time>
      </trkpt>
      <trkpt lat="47.42039" lon="0.71291">
        <ele>100.6</ele>
        <time>2016-05-01T08:14:52Z</time>
      </trkpt>
      <trkpt lat="47.4203" lon="0.71295">
        <ele>100.2</ele>
        <time>2016-05-01T08:14:55Z</time>
      </trkpt>
      <trkpt lat="47.42021" lon="0.713">
        <ele>99.7</ele>
        <time>2016-05-01T08:14:58Z</time>
      </trkpt>
      <trkpt lat="47.42011" lon="0.71306">
        <ele>99.3</ele>
        <time>2016-05-01T08:15:02Z</time>
      </trkpt>
      <trkpt lat="47.42002" lon="0.71311">
        <ele>99</ele>
        <time>2016-05-01T08:15:05Z</time>
      </trkpt>
      <trkpt lat="47.41992" lon="0.71318">
        <ele>98.9</ele>
        <time>2016-05-01T08:15:09Z</time>
      </trkpt>
      <trkpt lat="47.41982" lon="0.71327">
        <ele>98.8</ele>
        <time>2016-05-01T08:15:13Z</time>
      </trkpt>
      <trkpt lat="47.41971" lon="0.71337">
        <ele>98.7</ele>
        <time>2016-05-01T08:15:17Z</time>
      </trkpt>
      <trkpt lat="47.41962" lon="0.71343">
        <ele>98.8</ele>
        <time>2016-05-01T08:15:20Z</time>
      </trkpt>
      <trkpt lat="47.41952" lon="0.71344">
        <ele>98.9</ele>
        <time>2016-05-01T08:15:25Z</time>
      </trkpt>
      <trkpt lat="47.41947" lon="0.71332">
        <ele>99</ele>
        <time>2016-05-01T08:15:29Z</time>
      </trkpt>
      <trkpt lat="47.41945" lon="0.71315">
        <ele>99.1</ele>
        <time>2016-05-01T08:15:33Z</time>
      </trkpt>
      <trkpt lat="47.41943" lon="0.71301">
        <ele>99.2</ele>
        <time>2016-05-01T08:15:36Z</time>
      </trkpt>
      <trkpt lat="47.41943" lon="0.71283">
        <ele>99.2</ele>
        <time>2016-05-01T08:15:40Z</time>
      </trkpt>
      <trkpt lat="47.4194" lon="0.71269">
        <ele>99.2</ele>
        <time>2016-05-01T08:15:43Z</time>
      </trkpt>
      <trkpt lat="47.41937" lon="0.71256">
        <ele>99</ele>
        <time>2016-05-01T08:15:46Z</time>
      </trkpt>
      <trkpt lat="47.41935" lon="0.7124">
        <ele>98.8</ele>
        <time>2016-05-01T08:15:50Z</time>
      </trkpt>
      <trkpt lat="47.41932" lon="0.71225">
        <ele>98.6</ele>
        <time>2016-05-01T08:15:54Z</time>
      </trkpt>
      <trkpt lat="47.41931" lon="0.71209">
        <ele>98.5</ele>
        <time>2016-05-01T08:15:58Z</time>
      </trkpt>
      <trkpt lat="47.41933" lon="0.71193">
        <ele>98.4</ele>
        <time>2016-05-01T08:16:02Z</time>
      </trkpt>
      <trkpt lat="47.41939" lon="0.71178">
        <ele>98.3</ele>
        <time>2016-05-01T08:16:06Z</time>
      </trkpt>
      <trkpt lat="47.41939" lon="0.71164">
        <ele>98.2</ele>
        <time>2016-05-01T08:16:10Z</time>
      </trkpt>
      <trkpt lat="47.41933" lon="0.7115">
        <ele>98.1</ele>
        <time>2016-05-01T08:16:14Z</time>
      </trkpt>
      <trkpt lat="47.41928" lon="0.71136">
        <ele>98</ele>
        <time>2016-05-01T08:16:18Z</time>
      </trkpt>
      <trkpt lat="47.41926" lon="0.71122">
        <ele>98.2</ele>
        <time>2016-05-01T08:16:21Z</time>
      </trkpt>
      <trkpt lat="47.41924" lon="0.71104">
        <ele>98.4</ele>
        <time>2016-05-01T08:16:25Z</time>
      </trkpt>
      <trkpt lat="47.41921" lon="0.71087">
        <ele>98.5</ele>
        <time>2016-05-01T08:16:29Z</time>
      </trkpt>
      <trkpt lat="47.41919" lon="0.71074">
        <ele>98.7</ele>
        <time>2016-05-01T08:16:32Z</time>
      </trkpt>
      <trkpt lat="47.41918" lon="0.7106">
        <ele>98.9</ele>
        <time>2016-05-01T08:16:35Z</time>
      </trkpt>
      <trkpt lat="47.41916" lon="0.71045">
        <ele>99.1</ele>
        <time>2016-05-01T08:16:38Z</time>
      </trkpt>
      <trkpt lat="47.41913" lon="0.71031">
        <ele>99.5</ele>
        <time>2016-05-01T08:16:41Z</time>
      </trkpt>
      <trkpt lat="47.4191" lon="0.71014">
        <ele>99.8</ele>
        <time>2016-05-01T08:16:45Z</time>
      </trkpt>
      <trkpt lat="47.41908" lon="0.70997">
        <ele>100.4</ele>
        <time>2016-05-01T08:16:49Z</time>
      </trkpt>
      <trkpt lat="47.41905" lon="0.70984">
        <ele>100.9</ele>
        <time>2016-05-01T08:16:52Z</time>
      </trkpt>
      <trkpt lat="47.41899" lon="0.70971">
        <ele>101.5</ele>
        <time>2016-05-01T08:16:55Z</time>
      </trkpt>
      <trkpt lat="47.41892" lon="0.70962">
        <ele>101.8</ele>
        <time>2016-05-01T08:16:58Z</time>
      </trkpt>
      <trkpt lat="47.41881" lon="0.70956">
        <ele>102.2</ele>
        <time>2016-05-01T08:17:02Z</time>
      </trkpt>
      <trkpt lat="47.41872" lon="0.70951">
        <ele>102.5</ele>
        <time>2016-05-01T08:17:07Z</time>
      </trkpt>
      <trkpt lat="47.41862" lon="0.70947">
        <ele>102.9</ele>
        <time>2016-05-01T08:17:10Z</time>
      </trkpt>
      <trkpt lat="47.41854" lon="0.70942">
        <ele>103.3</ele>
        <time>2016-05-01T08:17:14Z</time>
      </trkpt>
      <trkpt lat="47.41845" lon="0.70931">
        <ele>103.5</ele>
        <time>2016-05-01T08:17:18Z</time>
      </trkpt>
      <trkpt lat="47.41834" lon="0.70924">
        <ele>103.5</ele>
        <time>2016-05-01T08:17:22Z</time>
      </trkpt>
      <trkpt lat="47.41825" lon="0.70917">
        <ele>103.5</ele>
        <time>2016-05-01T08:17:26Z</time>
      </trkpt>
      <trkpt lat="47.41814" lon="0.7091">
        <ele>103.3</ele>
        <time>2016-05-01T08:17:30Z</time>
      </trkpt>
      <trkpt lat="47.41804" lon="0.70905">
        <ele>103.1</ele>
        <time>2016-05-01T08:17:34Z</time>
      </trkpt>
      <trkpt lat="47.41794" lon="0.70896">
        <ele>102.9</ele>
        <time>2016-05-01T08:17:39Z</time>
      </trkpt>
      <trkpt lat="47.41785" lon="0.70891">
        <ele>102.7</ele>
        <time>2016-05-01T08:17:42Z</time>
      </trkpt>
      <trkpt lat="47.41776" lon="0.70889">
        <ele>102.5</ele>
        <time>2016-05-01T08:17:45Z</time>
      </trkpt>
      <trkpt lat="47.41776" lon="0.70871">
        <ele>102.5</ele>
        <time>2016-05-01T08:17:50Z</time>
      </trkpt>
      <trkpt lat="47.41777" lon="0.70856">
        <ele>102.5</ele>
        <time>2016-05-01T08:17:53Z</time>
      </trkpt>
      <trkpt lat="47.41779" lon="0.70842">
        <ele>102.5</ele>
        <time>2016-05-01T08:17:57Z</time>
      </trkpt>
      <trkpt lat="47.41778" lon="0.70825">
        <ele>102.7</ele>
        <time>2016-05-01T08:18:01Z</time>
      </trkpt>
      <trkpt lat="47.41778" lon="0.7081">
        <ele>102.9</ele>
        <time>2016-05-01T08:18:04Z</time>
      </trkpt>
      <trkpt lat="47.41779" lon="0.70792">
        <ele>103.1</ele>
        <time>2016-05-01T08:18:08Z</time>
      </trkpt>
      <trkpt lat="47.41779" lon="0.70775">
        <ele>103.2</ele>
        <time>2016-05-01T08:18:12Z</time>
      </trkpt>
      <trkpt lat="47.41779" lon="0.70761">
        <ele>103.3</ele>
        <time>2016-05-01T08:18:15Z</time>
      </trkpt>
      <trkpt lat="47.41781" lon="0.70748">
        <ele>103.4</ele>
        <time>2016-05-01T08:18:19Z</time>
      </trkpt>
      <trkpt lat="47.41782" lon="0.70733">
        <ele>103.5</ele>
        <time>2016-05-01T08:18:24Z</time>
      </trkpt>
      <trkpt lat="47.41785" lon="0.70719">
        <ele>103.5</ele>
        <time>2016-05-01T08:18:28Z</time>
      </trkpt>
      <trkpt lat="47.41787" lon="0.70705">
        <ele>103.5</ele>
        <time>2016-05-01T08:18:32Z</time>
      </trkpt>
      <trkpt lat="47.41788" lon="0.70692">
        <ele>103.5</ele>
        <time>2016-05-01T08:18:35Z</time>
      </trkpt>
      <trkpt lat="47.41788" lon="0.70677">
        <ele>103.5</ele>
        <time>2016-05-01T08:18:38Z</time>
      </trkpt>
      <trkpt lat="47.4179" lon="0.70662">
        <ele>103.5</ele>
        <time>2016-05-01T08:18:41Z</time>
      </trkpt>
      <trkpt lat="47.41791" lon="0.70645">
        <ele>103.5</ele>
        <time>2016-05-01T08:18:44Z</time>
      </trkpt>
      <trkpt lat="47.41793" lon="0.70629">
        <ele>103.7</ele>
        <time>2016-05-01T08:18:47Z</time>
      </trkpt>
      <trkpt lat="47.41799" lon="0.70615">
        <ele>104.1</ele>
        <time>2016-05-01T08:18:51Z</time>
      </trkpt>
      <trkpt lat="47.41809" lon="0.70613">
        <ele>104.5</ele>
        <time>2016-05-01T08:18:55Z</time>
      </trkpt>
      <trkpt lat="47.41817" lon="0.70618">
        <ele>104.8</ele>
        <time>2016-05-01T08:18:58Z</time>
      </trkpt>
      <trkpt lat="47.41825" lon="0.70625">
        <ele>105.2</ele>
        <time>2016-05-01T08:19:01Z</time>
      </trkpt>
      <trkpt lat="47.41833" lon="0.70634">
        <ele>105.5</ele>
        <time>2016-05-01T08:19:05Z</time>
      </trkpt>
      <trkpt lat="47.41844" lon="0.70639">
        <ele>105.7</ele>
        <time>2016-05-01T08:19:09Z</time>
      </trkpt>
      <trkpt lat="47.41853" lon="0.70643">
        <ele>105.9</ele>
        <time>2016-05-01T08:19:12Z</time>
      </trkpt>
      <trkpt lat="47.41863" lon="0.7065">
        <ele>106.1</ele>
        <time>2016-05-01T08:19:16Z</time>
      </trkpt>
      <trkpt lat="47.41873" lon="0.70655">
        <ele>106.3</ele>
        <time>2016-05-01T08:19:20Z</time>
      </trkpt>
      <trkpt lat="47.41883" lon="0.70657">
        <ele>106.5</ele>
        <time>2016-05-01T08:19:23Z</time>
      </trkpt>
      <trkpt lat="47.41895" lon="0.70661">
        <ele>106.4</ele>
        <time>2016-05-01T08:19:27Z</time>
      </trkpt>
      <trkpt lat="47.41904" lon="0.70664">
        <ele>106.3</ele>
        <time>2016-05-01T08:19:30Z</time>
      </trkpt>
      <trkpt lat="47.41913" lon="0.70667">
        <ele>106</ele>
        <time>2016-05-01T08:19:33Z</time>
      </trkpt>
      <trkpt lat="47.41922" lon="0.7067">
        <ele>105.7</ele>
        <time>2016-05-01T08:19:36Z</time>
      </trkpt>
      <trkpt lat="47.41933" lon="0.70672">
        <ele>105.5</ele>
        <time>2016-05-01T08:19:40Z</time>
      </trkpt>
      <trkpt lat="47.41945" lon="0.70673">
        <ele>105.3</ele>
        <time>2016-05-01T08:19:44Z</time>
      </trkpt>
      <trkpt lat="47.41956" lon="0.70673">
        <ele>105.1</ele>
        <time>2016-05-01T08:19:48Z</time>
      </trkpt>
      <trkpt lat="47.41966" lon="0.70675">
        <ele>104.9</ele>
        <time>2016-05-01T08:19:52Z</time>
      </trkpt>
      <trkpt lat="47.41977" lon="0.70676">
        <ele>104.7</ele>
        <time>2016-05-01T08:19:56Z</time>
      </trkpt>
      <trkpt lat="47.41988" lon="0.70678">
        <ele>104.5</ele>
        <time>2016-05-01T08:20:00Z</time>
      </trkpt>
      <trkpt lat="47.41999" lon="0.70677">
        <ele>104.3</ele>
        <time>2016-05-01T08:20:04Z</time>
      </trkpt>
      <trkpt lat="47.42009" lon="0.70678">
        <ele>104</ele>
        <time>2016-05-01T08:20:08Z</time>
      </trkpt>
      <trkpt lat="47.42018" lon="0.70678">
        <ele>103.7</ele>
        <time>2016-05-01T08:20:11Z</time>
      </trkpt>
      <trkpt lat="47.4203" lon="0.70676">
        <ele>103.6</ele>
        <time>2016-05-01T08:20:15Z</time>
      </trkpt>
      <trkpt lat="47.4204" lon="0.70673">
        <ele>103.5</ele>
        <time>2016-05-01T08:20:18Z</time>
      </trkpt>
      <trkpt lat="47.42051" lon="0.70669">
        <ele>103.5</ele>
        <time>2016-05-01T08:20:22Z</time>
      </trkpt>
      <trkpt lat="47.4206" lon="0.70665">
        <ele>103.3</ele>
        <time>2016-05-01T08:20:25Z</time>
      </trkpt>
      <trkpt lat="47.42071" lon="0.70657">
        <ele>103.1</ele>
        <time>2016-05-01T08:20:29Z</time>
      </trkpt>
      <trkpt lat="47.42081" lon="0.7065">
        <ele>102.9</ele>
        <time>2016-05-01T08:20:33Z</time>
      </trkpt>
      <trkpt lat="47.42091" lon="0.70642">
        <ele>103</ele>
        <time>2016-05-01T08:20:37Z</time>
      </trkpt>
      <trkpt lat="47.421" lon="0.70635">
        <ele>103.1</ele>
        <time>2016-05-01T08:20:41Z</time>
      </trkpt>
      <trkpt lat="47.4211" lon="0.70626">
        <ele>103.3</ele>
        <time>2016-05-01T08:20:45Z</time>
      </trkpt>
      <trkpt lat="47.42119" lon="0.70617">
        <ele>103.5</ele>
        <time>2016-05-01T08:20:49Z</time>
      </trkpt>
      <trkpt lat="47.42128" lon="0.70608">
        <ele>103.6</ele>
        <time>2016-05-01T08:20:53Z</time>
      </trkpt>
      <trkpt lat="47.42138" lon="0.70601">
        <ele>103.8</ele>
        <time>2016-05-01T08:20:57Z</time>
      </trkpt>
      <trkpt lat="47.42148" lon="0.70595">
        <ele>104</ele>
        <time>2016-05-01T08:21:01Z</time>
      </trkpt>
      <trkpt lat="47.42158" lon="0.70592">
        <ele>104.2</ele>
        <time>2016-05-01T08:21:04Z</time>
      </trkpt>
      <trkpt lat="47.42167" lon="0.7059">
        <ele>104.5</ele>
        <time>2016-05-01T08:21:07Z</time>
      </trkpt>
      <trkpt lat="47.42177" lon="0.70588">
        <ele>104.7</ele>
        <time>2016-05-01T08:21:10Z</time>
      </trkpt>
      <trkpt lat="47.42188" lon="0.70587">
        <ele>105</ele>
        <time>2016-05-01T08:21:14Z</time>
      </trkpt>
      <trkpt lat="47.42199" lon="0.70588">
        <ele>105</ele>
        <time>2016-05-01T08:21:18Z</time>
      </trkpt>
      <trkpt lat="47.42208" lon="0.7059">
        <ele>105</ele>
        <time>2016-05-01T08:21:21Z</time>
      </trkpt>
      <trkpt lat="47.42217" lon="0.70592">
        <ele>104.9</ele>
        <time>2016-05-01T08:21:24Z</time>
      </trkpt>
      <trkpt lat="47.42227" lon="0.70592">
        <ele>104.8</ele>
        <time>2016-05-01T08:21:27Z</time>
      </trkpt>
      <trkpt lat="47.42235" lon="0.70579">
        <ele>104.7</ele>
        <time>2016-05-01T08:21:31Z</time>
      </trkpt>
      <trkpt lat="47.42234" lon="0.70562">
        <ele>104.6</ele>
        <time>2016-05-01T08:21:34Z</time>
      </trkpt>
      <trkpt lat="47.42228" lon="0.70547">
        <ele>104.5</ele>
        <time>2016-05-01T08:21:37Z</time>
      </trkpt>
      <trkpt lat="47.42222" lon="0.70535">
        <ele>104.5</ele>
        <time>2016-05-01T08:21:40Z</time>
      </trkpt>
      <trkpt lat="47.42215" lon="0.70523">
        <ele>104.3</ele>
        <time>2016-05-01T08:21:44Z</time>
      </trkpt>
      <trkpt lat="47.42209" lon="0.70509">
        <ele>104.1</ele>
        <time>2016-05-01T08:21:48Z</time>
      </trkpt>
      <trkpt lat="47.42203" lon="0.70497">
        <ele>103.9</ele>
        <time>2016-05-01T08:21:51Z</time>
      </trkpt>
      <trkpt lat="47.42198" lon="0.70486">
        <ele>103.7</ele>
        <time>2016-05-01T08:21:54Z</time>
      </trkpt>
      <trkpt lat="47.42192" lon="0.70472">
        <ele>103.5</ele>
        <time>2016-05-01T08:21:58Z</time>
      </trkpt>
      <trkpt lat="47.42187" lon="0.70458">
        <ele>103.5</ele>
        <time>2016-05-01T08:22:02Z</time>
      </trkpt>
      <trkpt lat="47.42179" lon="0.7045">
        <ele>103.5</ele>
        <time>2016-05-01T08:22:05Z</time>
      </trkpt>
      <trkpt lat="47.4217" lon="0.70441">
        <ele>103.5</ele>
        <time>2016-05-01T08:22:08Z</time>
      </trkpt>
      <trkpt lat="47.42162" lon="0.70433">
        <ele>103.5</ele>
        <time>2016-05-01T08:22:11Z</time>
      </trkpt>
      <trkpt lat="47.42153" lon="0.70425">
        <ele>103.4</ele>
        <time>2016-05-01T08:22:14Z</time>
      </trkpt>
      <trkpt lat="47.42141" lon="0.7042">
        <ele>103.3</ele>
        <time>2016-05-01T08:22:18Z</time>
      </trkpt>
      <trkpt lat="47.4213" lon="0.70415">
        <ele>103.3</ele>
        <time>2016-05-01T08:22:22Z</time>
      </trkpt>
      <trkpt lat="47.4212" lon="0.70409">
        <ele>103.3</ele>
        <time>2016-05-01T08:22:26Z</time>
      </trkpt>
      <trkpt lat="47.42113" lon="0.70395">
        <ele>103.6</ele>
        <time>2016-05-01T08:22:30Z</time>
      </trkpt>
      <trkpt lat="47.42114" lon="0.70381">
        <ele>104</ele>
        <time>2016-05-01T08:22:33Z</time>
      </trkpt>
      <trkpt lat="47.42117" lon="0.70367">
        <ele>104.4</ele>
        <time>2016-05-01T08:22:36Z</time>
      </trkpt>
      <trkpt lat="47.42122" lon="0.70355">
        <ele>104.6</ele>
        <time>2016-05-01T08:22:39Z</time>
      </trkpt>
      <trkpt lat="47.42128" lon="0.7034">
        <ele>104.8</ele>
        <time>2016-05-01T08:22:43Z</time>
      </trkpt>
      <trkpt lat="47.42133" lon="0.70326">
        <ele>105</ele>
        <time>2016-05-01T08:22:47Z</time>
      </trkpt>
      <trkpt lat="47.4214" lon="0.70312">
        <ele>105.2</ele>
        <time>2016-05-01T08:22:51Z</time>
      </trkpt>
      <trkpt lat="47.42145" lon="0.70301">
        <ele>105.5</ele>
        <time>2016-05-01T08:22:54Z</time>
      </trkpt>
      <trkpt lat="47.4215" lon="0.7029">
        <ele>105.7</ele>
        <time>2016-05-01T08:22:57Z</time>
      </trkpt>
      <trkpt lat="47.42157" lon="0.7028">
        <ele>106</ele>
        <time>2016-05-01T08:23:00Z</time>
      </trkpt>
      <trkpt lat="47.42165" lon="0.70272">
        <ele>106.3</ele>
        <time>2016-05-01T08:23:03Z</time>
      </trkpt>
      <trkpt lat="47.42175" lon="0.70264">
        <ele>106</ele>
        <time>2016-05-01T08:23:07Z</time>
      </trkpt>
      <trkpt lat="47.42184" lon="0.70254">
        <ele>105.7</ele>
        <time>2016-05-01T08:23:11Z</time>
      </trkpt>
      <trkpt lat="47.4219" lon="0.70245">
        <ele>105.5</ele>
        <time>2016-05-01T08:23:14Z</time>
      </trkpt>
      <trkpt lat="47.42198" lon="0.70237">
        <ele>105.3</ele>
        <time>2016-05-01T08:23:17Z</time>
      </trkpt>
      <trkpt lat="47.42206" lon="0.70226">
        <ele>105.1</ele>
        <time>2016-05-01T08:23:21Z</time>
      </trkpt>
      <trkpt lat="47.42215" lon="0.70214">
        <ele>104.9</ele>
        <time>2016-05-01T08:23:25Z</time>
      </trkpt>
      <trkpt lat="47.42223" lon="0.70206">
        <ele>104.7</ele>
        <time>2016-05-01T08:23:28Z</time>
      </trkpt>
      <trkpt lat="47.42232" lon="0.70203">
        <ele>104.5</ele>
        <time>2016-05-01T08:23:32Z</time>
      </trkpt>
      <trkpt lat="47.42242" lon="0.70205">
        <ele>104.4</ele>
        <time>2016-05-01T08:23:35Z</time>
      </trkpt>
      <trkpt lat="47.42252" lon="0.70208">
        <ele>104.3</ele>
        <time>2016-05-01T08:23:38Z</time>
      </trkpt>
      <trkpt lat="47.42261" lon="0.7021">
        <ele>104</ele>
        <time>2016-05-01T08:23:41Z</time>
      </trkpt>
      <trkpt lat="47.4227" lon="0.70212">
        <ele>103.9</ele>
        <time>2016-05-01T08:23:44Z</time>
      </trkpt>
      <trkpt lat="47.4228" lon="0.70214">
        <ele>103.8</ele>
        <time>2016-05-01T08:23:47Z</time>
      </trkpt>
      <trkpt lat="47.42292" lon="0.70217">
        <ele>103.7</ele>
        <time>2016-05-01T08:23:51Z</time>
      </trkpt>
      <trkpt lat="47.42303" lon="0.70218">
        <ele>103.6</ele>
        <time>2016-05-01T08:23:55Z</time>
      </trkpt>
      <trkpt lat="47.4231" lon="0.70207">
        <ele>103.5</ele>
        <time>2016-05-01T08:23:59Z</time>
      </trkpt>
      <trkpt lat="47.42312" lon="0.70193">
        <ele>103.5</ele>
        <time>2016-05-01T08:24:02Z</time>
      </trkpt>
      <trkpt lat="47.42313" lon="0.70176">
        <ele>103.4</ele>
        <time>2016-05-01T08:24:05Z</time>
      </trkpt>
      <trkpt lat="47.42313" lon="0.7016">
        <ele>103.3</ele>
        <time>2016-05-01T08:24:09Z</time>
      </trkpt>
      <trkpt lat="47.42314" lon="0.70146">
        <ele>103.2</ele>
        <time>2016-05-01T08:24:12Z</time>
      </trkpt>
      <trkpt lat="47.42315" lon="0.70133">
        <ele>103</ele>
        <time>2016-05-01T08:24:15Z</time>
      </trkpt>
      <trkpt lat="47.42315" lon="0.70118">
        <ele>103</ele>
        <time>2016-05-01T08:24:18Z</time>
      </trkpt>
      <trkpt lat="47.42317" lon="0.70105">
        <ele>103</ele>
        <time>2016-05-01T08:24:21Z</time>
      </trkpt>
      <trkpt lat="47.42318" lon="0.70089">
        <ele>103</ele>
        <time>2016-05-01T08:24:25Z</time>
      </trkpt>
      <trkpt lat="47.42322" lon="0.70075">
        <ele>103</ele>
        <time>2016-05-01T08:24:29Z</time>
      </trkpt>
      <trkpt lat="47.42332" lon="0.70071">
        <ele>102.9</ele>
        <time>2016-05-01T08:24:33Z</time>
      </trkpt>
      <trkpt lat="47.42342" lon="0.70075">
        <ele>102.8</ele>
        <time>2016-05-01T08:24:36Z</time>
      </trkpt>
      <trkpt lat="47.42351" lon="0.70081">
        <ele>102.7</ele>
        <time>2016-05-01T08:24:39Z</time>
      </trkpt>
      <trkpt lat="47.4236" lon="0.70086">
        <ele>102.6</ele>
        <time>2016-05-01T08:24:42Z</time>
      </trkpt>
      <trkpt lat="47.42371" lon="0.70092">
        <ele>102.5</ele>
        <time>2016-05-01T08:24:46Z</time>
      </trkpt>
      <trkpt lat="47.4238" lon="0.70095">
        <ele>102.5</ele>
        <time>2016-05-01T08:24:50Z</time>
      </trkpt>
      <trkpt lat="47.42384" lon="0.70082">
        <ele>102.4</ele>
        <time>2016-05-01T08:24:53Z</time>
      </trkpt>
      <trkpt lat="47.42383" lon="0.70069">
        <ele>102.3</ele>
        <time>2016-05-01T08:24:55Z</time>
      </trkpt>
      <trkpt lat="47.42383" lon="0.70055">
        <ele>102.2</ele>
        <time>2016-05-01T08:24:57Z</time>
      </trkpt>
      <trkpt lat="47.42382" lon="0.70038">
        <ele>101.9</ele>
        <time>2016-05-01T08:25:00Z</time>
      </trkpt>
      <trkpt lat="47.42382" lon="0.7002">
        <ele>101.6</ele>
        <time>2016-05-01T08:25:04Z</time>
      </trkpt>
      <trkpt lat="47.4238" lon="0.70003">
        <ele>101.5</ele>
        <time>2016-05-01T08:25:07Z</time>
      </trkpt>
      <trkpt lat="47.42379" lon="0.69987">
        <ele>101.3</ele>
        <time>2016-05-01T08:25:11Z</time>
      </trkpt>
      <trkpt lat="47.42379" lon="0.69971">
        <ele>101.1</ele>
        <time>2016-05-01T08:25:15Z</time>
      </trkpt>
      <trkpt lat="47.4238" lon="0.69955">
        <ele>100.9</ele>
        <time>2016-05-01T08:25:19Z</time>
      </trkpt>
      <trkpt lat="47.4238" lon="0.69938">
        <ele>100.7</ele>
        <time>2016-05-01T08:25:23Z</time>
      </trkpt>
      <trkpt lat="47.42385" lon="0.69925">
        <ele>100.5</ele>
        <time>2016-05-01T08:25:27Z</time>
      </trkpt>
      <trkpt lat="47.42395" lon="0.69925">
        <ele>100.4</ele>
        <time>2016-05-01T08:25:30Z</time>
      </trkpt>
      <trkpt lat="47.42405" lon="0.69928">
        <ele>100.2</ele>
        <time>2016-05-01T08:25:33Z</time>
      </trkpt>
      <trkpt lat="47.42415" lon="0.6993">
        <ele>100.2</ele>
        <time>2016-05-01T08:25:36Z</time>
      </trkpt>
      <trkpt lat="47.42427" lon="0.69932">
        <ele>100.4</ele>
        <time>2016-05-01T08:25:40Z</time>
      </trkpt>
      <trkpt lat="47.42436" lon="0.69933">
        <ele>100.5</ele>
        <time>2016-05-01T08:25:43Z</time>
      </trkpt>
      <trkpt lat="47.42444" lon="0.69941">
        <ele>100.5</ele>
        <time>2016-05-01T08:25:46Z</time>
      </trkpt>
      <trkpt lat="47.42453" lon="0.69952">
        <ele>100.6</ele>
        <time>2016-05-01T08:25:50Z</time>
      </trkpt>
      <trkpt lat="47.42461" lon="0.69959">
        <ele>100.7</ele>
        <time>2016-05-01T08:25:53Z</time>
      </trkpt>
      <trkpt lat="47.4247" lon="0.69966">
        <ele>100.8</ele>
        <time>2016-05-01T08:25:56Z</time>
      </trkpt>
      <trkpt lat="47.4248" lon="0.69974">
        <ele>100.9</ele>
        <time>2016-05-01T08:26:00Z</time>
      </trkpt>
      <trkpt lat="47.4249" lon="0.6998">
        <ele>101</ele>
        <time>2016-05-01T08:26:04Z</time>
      </trkpt>
      <trkpt lat="47.42497" lon="0.69987">
        <ele>101.1</ele>
        <time>2016-05-01T08:26:08Z</time>
      </trkpt>
      <trkpt lat="47.42505" lon="0.69999">
        <ele>101.2</ele>
        <time>2016-05-01T08:26:12Z</time>
      </trkpt>
      <trkpt lat="47.42513" lon="0.70009">
        <ele>101</ele>
        <time>2016-05-01T08:26:16Z</time>
      </trkpt>
      <trkpt lat="47.42521" lon="0.7002">
        <ele>100.8</ele>
        <time>2016-05-01T08:26:20Z</time>
      </trkpt>
      <trkpt lat="47.4253" lon="0.7003">
        <ele>100.7</ele>
        <time>2016-05-01T08:26:24Z</time>
      </trkpt>
      <trkpt lat="47.42538" lon="0.70038">
        <ele>100.6</ele>
        <time>2016-05-01T08:26:28Z</time>
      </trkpt>
      <trkpt lat="47.42546" lon="0.70048">
        <ele>100.5</ele>
        <time>2016-05-01T08:26:32Z</time>
      </trkpt>
      <trkpt lat="47.42555" lon="0.70057">
        <ele>100.5</ele>
        <time>2016-05-01T08:26:36Z</time>
      </trkpt>
      <trkpt lat="47.42563" lon="0.70066">
        <ele>100.4</ele>
        <time>2016-05-01T08:26:39Z</time>
      </trkpt>
      <trkpt lat="47.4257" lon="0.70076">
        <ele>100.4</ele>
        <time>2016-05-01T08:26:42Z</time>
      </trkpt>
      <trkpt lat="47.42578" lon="0.70088">
        <ele>100.4</ele>
        <time>2016-05-01T08:26:46Z</time>
      </trkpt>
      <trkpt lat="47.42585" lon="0.70102">
        <ele>100.4</ele>
        <time>2016-05-01T08:26:50Z</time>
      </trkpt>
      <trkpt lat="47.4258" lon="0.70117">
        <ele>100.5</ele>
        <time>2016-05-01T08:26:54Z</time>
      </trkpt>
      <trkpt lat="47.42571" lon="0.70129">
        <ele>100.6</ele>
        <time>2016-05-01T08:26:58Z</time>
      </trkpt>
      <trkpt lat="47.42564" lon="0.70142">
        <ele>100.8</ele>
        <time>2016-05-01T08:27:02Z</time>
      </trkpt>
      <trkpt lat="47.42561" lon="0.70154">
        <ele>101</ele>
        <time>2016-05-01T08:27:05Z</time>
      </trkpt>
      <trkpt lat="47.42554" lon="0.70166">
        <ele>101.2</ele>
        <time>2016-05-01T08:27:09Z</time>
      </trkpt>
      <trkpt lat="47.42544" lon="0.70167">
        <ele>101.4</ele>
        <time>2016-05-01T08:27:13Z</time>
      </trkpt>
      <trkpt lat="47.42535" lon="0.70165">
        <ele>101.5</ele>
        <time>2016-05-01T08:27:16Z</time>
      </trkpt>
      <trkpt lat="47.42526" lon="0.70164">
        <ele>101.7</ele>
        <time>2016-05-01T08:27:19Z</time>
      </trkpt>
      <trkpt lat="47.42515" lon="0.70162">
        <ele>101.8</ele>
        <time>2016-05-01T08:27:23Z</time>
      </trkpt>
      <trkpt lat="47.42505" lon="0.70158">
        <ele>101.9</ele>
        <time>2016-05-01T08:27:27Z</time>
      </trkpt>
      <trkpt lat="47.42495" lon="0.70153">
        <ele>102</ele>
        <time>2016-05-01T08:27:31Z</time>
      </trkpt>
      <trkpt lat="47.42484" lon="0.7015">
        <ele>102</ele>
        <time>2016-05-01T08:27:35Z</time>
      </trkpt>
      <trkpt lat="47.42473" lon="0.70147">
        <ele>102</ele>
        <time>2016-05-01T08:27:39Z</time>
      </trkpt>
      <trkpt lat="47.42462" lon="0.70146">
        <ele>102</ele>
        <time>2016-05-01T08:27:43Z</time>
      </trkpt>
      <trkpt lat="47.42452" lon="0.70144">
        <ele>102</ele>
        <time>2016-05-01T08:27:46Z</time>
      </trkpt>
      <trkpt lat="47.42443" lon="0.7014">
        <ele>102</ele>
        <time>2016-05-01T08:27:49Z</time>
      </trkpt>
      <trkpt lat="47.42433" lon="0.70136">
        <ele>102</ele>
        <time>2016-05-01T08:27:53Z</time>
      </trkpt>
      <trkpt lat="47.42422" lon="0.70135">
        <ele>102</ele>
        <time>2016-05-01T08:27:57Z</time>
      </trkpt>
      <trkpt lat="47.42418" lon="0.70148">
        <ele>102.2</ele>
        <time>2016-05-01T08:28:00Z</time>
      </trkpt>
      <trkpt lat="47.42417" lon="0.70162">
        <ele>102.4</ele>
        <time>2016-05-01T08:28:03Z</time>
      </trkpt>
      <trkpt lat="47.42416" lon="0.7018">
        <ele>102.5</ele>
        <time>2016-05-01T08:28:07Z</time>
      </trkpt>
      <trkpt lat="47.42414" lon="0.70197">
        <ele>102.7</ele>
        <time>2016-05-01T08:28:11Z</time>
      </trkpt>
      <trkpt lat="47.42413" lon="0.70213">
        <ele>102.9</ele>
        <time>2016-05-01T08:28:15Z</time>
      </trkpt>
      <trkpt lat="47.42412" lon="0.7023">
        <ele>103.1</ele>
        <time>2016-05-01T08:28:19Z</time>
      </trkpt>
      <trkpt lat="47.4241" lon="0.70246">
        <ele>103.3</ele>
        <time>2016-05-01T08:28:23Z</time>
      </trkpt>
      <trkpt lat="47.42408" lon="0.70264">
        <ele>103.5</ele>
        <time>2016-05-01T08:28:27Z</time>
      </trkpt>
      <trkpt lat="47.42408" lon="0.7028">
        <ele>103.6</ele>
        <time>2016-05-01T08:28:31Z</time>
      </trkpt>
      <trkpt lat="47.42409" lon="0.70298">
        <ele>103.8</ele>
        <time>2016-05-01T08:28:35Z</time>
      </trkpt>
      <trkpt lat="47.42409" lon="0.70312">
        <ele>103.9</ele>
        <time>2016-05-01T08:28:38Z</time>
      </trkpt>
      <trkpt lat="47.42409" lon="0.70327">
        <ele>103.8</ele>
        <time>2016-05-01T08:28:41Z</time>
      </trkpt>
      <trkpt lat="47.42409" lon="0.7034">
        <ele>103.7</ele>
        <time>2016-05-01T08:28:44Z</time>
      </trkpt>
      <trkpt lat="47.42409" lon="0.70354">
        <ele>103.6</ele>
        <time>2016-05-01T08:28:47Z</time>
      </trkpt>
      <trkpt lat="47.42407" lon="0.70369">
        <ele>103.5</ele>
        <time>2016-05-01T08:28:51Z</time>
      </trkpt>
      <trkpt lat="47.42405" lon="0.70384">
        <ele>103.5</ele>
        <time>2016-05-01T08:28:55Z</time>
      </trkpt>
      <trkpt lat="47.42402" lon="0.704">
        <ele>103.5</ele>
        <time>2016-05-01T08:28:59Z</time>
      </trkpt>
      <trkpt lat="47.42399" lon="0.70414">
        <ele>103.6</ele>
        <time>2016-05-01T08:29:02Z</time>
      </trkpt>
      <trkpt lat="47.42397" lon="0.70427">
        <ele>103.7</ele>
        <time>2016-05-01T08:29:05Z</time>
      </trkpt>
      <trkpt lat="47.42394" lon="0.7044">
        <ele>103.8</ele>
        <time>2016-05-01T08:29:08Z</time>
      </trkpt>
      <trkpt lat="47.42391" lon="0.70453">
        <ele>103.9</ele>
        <time>2016-05-01T08:29:11Z</time>
      </trkpt>
      <trkpt lat="47.42388" lon="0.70466">
        <ele>104.1</ele>
        <time>2016-05-01T08:29:14Z</time>
      </trkpt>
      <trkpt lat="47.42385" lon="0.7048">
        <ele>104.3</ele>
        <time>2016-05-01T08:29:17Z</time>
      </trkpt>
      <trkpt lat="47.42382" lon="0.70495">
        <ele>104.5</ele>
        <time>2016-05-01T08:29:21Z</time>
      </trkpt>
      <trkpt lat="47.42379" lon="0.70511">
        <ele>104.6</ele>
        <time>2016-05-01T08:29:25Z</time>
      </trkpt>
      <trkpt lat="47.4238" lon="0.70528">
        <ele>104.8</ele>
        <time>2016-05-01T08:29:29Z</time>
      </trkpt>
      <trkpt lat="47.42389" lon="0.70537">
        <ele>105</ele>
        <time>2016-05-01T08:29:32Z</time>
      </trkpt>
      <trkpt lat="47.42399" lon="0.70537">
        <ele>105</ele>
        <time>2016-05-01T08:29:35Z</time>
      </trkpt>
      <trkpt lat="47.42409" lon="0.70538">
        <ele>105</ele>
        <time>2016-05-01T08:29:38Z</time>
      </trkpt>
      <trkpt lat="47.42419" lon="0.70541">
        <ele>105</ele>
        <time>2016-05-01T08:29:42Z</time>
      </trkpt>
      <trkpt lat="47.42428" lon="0.70543">
        <ele>105</ele>
        <time>2016-05-01T08:29:45Z</time>
      </trkpt>
      <trkpt lat="47.4244" lon="0.70545">
        <ele>104.7</ele>
        <time>2016-05-01T08:29:49Z</time>
      </trkpt>
      <trkpt lat="47.42451" lon="0.70547">
        <ele>104.5</ele>
        <time>2016-05-01T08:29:53Z</time>
      </trkpt>
      <trkpt lat="47.42461" lon="0.70548">
        <ele>104.2</ele>
        <time>2016-05-01T08:29:56Z</time>
      </trkpt>
      <trkpt lat="47.42471" lon="0.70547">
        <ele>103.9</ele>
        <time>2016-05-01T08:29:59Z</time>
      </trkpt>
      <trkpt lat="47.42482" lon="0.70546">
        <ele>103.6</ele>
        <time>2016-05-01T08:30:03Z</time>
      </trkpt>
      <trkpt lat="47.42492" lon="0.70545">
        <ele>103.4</ele>
        <time>2016-05-01T08:30:07Z</time>
      </trkpt>
      <trkpt lat="47.42504" lon="0.70545">
        <ele>103</ele>
        <time>2016-05-01T08:30:11Z</time>
      </trkpt>
      <trkpt lat="47.42513" lon="0.70543">
        <ele>102.6</ele>
        <time>2016-05-01T08:30:14Z</time>
      </trkpt>
      <trkpt lat="47.42523" lon="0.70539">
        <ele>102.3</ele>
        <time>2016-05-01T08:30:18Z</time>
      </trkpt>
      <trkpt lat="47.42534" lon="0.70533">
        <ele>101.9</ele>
        <time>2016-05-01T08:30:22Z</time>
      </trkpt>
      <trkpt lat="47.42543" lon="0.7053">
        <ele>101.7</ele>
        <time>2016-05-01T08:30:25Z</time>
      </trkpt>
      <trkpt lat="47.42552" lon="0.70528">
        <ele>101.8</ele>
        <time>2016-05-01T08:30:28Z</time>
      </trkpt>
      <trkpt lat="47.42561" lon="0.70526">
        <ele>101.9</ele>
        <time>2016-05-01T08:30:31Z</time>
      </trkpt>
      <trkpt lat="47.4257" lon="0.70528">
        <ele>102</ele>
        <time>2016-05-01T08:30:34Z</time>
      </trkpt>
      <trkpt lat="47.42578" lon="0.70542">
        <ele>102.1</ele>
        <time>2016-05-01T08:30:38Z</time>
      </trkpt>
      <trkpt lat="47.42585" lon="0.70556">
        <ele>102.2</ele>
        <time>2016-05-01T08:30:42Z</time>
      </trkpt>
      <trkpt lat="47.4259" lon="0.70568">
        <ele>102.4</ele>
        <time>2016-05-01T08:30:46Z</time>
      </trkpt>
      <trkpt lat="47.42597" lon="0.70583">
        <ele>102.6</ele>
        <time>2016-05-01T08:30:50Z</time>
      </trkpt>
      <trkpt lat="47.42602" lon="0.70594">
        <ele>102.9</ele>
        <time>2016-05-01T08:30:53Z</time>
      </trkpt>
      <trkpt lat="47.42608" lon="0.70608">
        <ele>103.2</ele>
        <time>2016-05-01T08:30:57Z</time>
      </trkpt>
      <trkpt lat="47.42614" lon="0.70623">
        <ele>103.5</ele>
        <time>2016-05-01T08:31:01Z</time>
      </trkpt>
      <trkpt lat="47.42621" lon="0.70635">
        <ele>103.5</ele>
        <time>2016-05-01T08:31:05Z</time>
      </trkpt>
      <trkpt lat="47.42628" lon="0.70648">
        <ele>103.7</ele>
        <time>2016-05-01T08:31:09Z</time>
      </trkpt>
      <trkpt lat="47.42634" lon="0.70661">
        <ele>103.9</ele>
        <time>2016-05-01T08:31:13Z</time>
      </trkpt>
      <trkpt lat="47.4264" lon="0.70675">
        <ele>104.1</ele>
        <time>2016-05-01T08:31:17Z</time>
      </trkpt>
      <trkpt lat="47.42645" lon="0.70688">
        <ele>104.3</ele>
        <time>2016-05-01T08:31:21Z</time>
      </trkpt>
      <trkpt lat="47.42652" lon="0.70702">
        <ele>104.5</ele>
        <time>2016-05-01T08:31:25Z</time>
      </trkpt>
      <trkpt lat="47.42658" lon="0.70716">
        <ele>104.5</ele>
        <time>2016-05-01T08:31:29Z</time>
      </trkpt>
      <trkpt lat="47.42663" lon="0.70728">
        <ele>104.6</ele>
        <time>2016-05-01T08:31:32Z</time>
      </trkpt>
      <trkpt lat="47.42671" lon="0.70742">
        <ele>104.5</ele>
        <time>2016-05-01T08:31:36Z</time>
      </trkpt>
      <trkpt lat="47.42679" lon="0.70753">
        <ele>104.3</ele>
        <time>2016-05-01T08:31:40Z</time>
      </trkpt>
      <trkpt lat="47.42687" lon="0.70765">
        <ele>104.1</ele>
        <time>2016-05-01T08:31:44Z</time>
      </trkpt>
      <trkpt lat="47.42695" lon="0.70774">
        <ele>103.9</ele>
        <time>2016-05-01T08:31:48Z</time>
      </trkpt>
      <trkpt lat="47.42704" lon="0.70774">
        <ele>103.6</ele>
        <time>2016-05-01T08:31:51Z</time>
      </trkpt>
      <trkpt lat="47.42713" lon="0.70766">
        <ele>103.4</ele>
        <time>2016-05-01T08:31:54Z</time>
      </trkpt>
      <trkpt lat="47.42721" lon="0.70756">
        <ele>103.1</ele>
        <time>2016-05-01T08:31:57Z</time>
      </trkpt>
      <trkpt lat="47.42728" lon="0.70746">
        <ele>102.8</ele>
        <time>2016-05-01T08:32:00Z</time>
      </trkpt>
      <trkpt lat="47.42735" lon="0.70736">
        <ele>102.5</ele>
        <time>2016-05-01T08:32:03Z</time>
      </trkpt>
      <trkpt lat="47.42741" lon="0.70725">
        <ele>102.3</ele>
        <time>2016-05-01T08:32:06Z</time>
      </trkpt>
      <trkpt lat="47.42746" lon="0.70713">
        <ele>102</ele>
        <time>2016-05-01T08:32:09Z</time>
      </trkpt>
      <trkpt lat="47.42751" lon="0.70702">
        <ele>102</ele>
        <time>2016-05-01T08:32:12Z</time>
      </trkpt>
      <trkpt lat="47.42759" lon="0.70691">
        <ele>102</ele>
        <time>2016-05-01T08:32:15Z</time>
      </trkpt>
      <trkpt lat="47.42765" lon="0.70681">
        <ele>102</ele>
        <time>2016-05-01T08:32:18Z</time>
      </trkpt>
      <trkpt lat="47.4277" lon="0.70667">
        <ele>101.8</ele>
        <time>2016-05-01T08:32:22Z</time>
      </trkpt>
      <trkpt lat="47.42777" lon="0.70653">
        <ele>101.6</ele>
        <time>2016-05-01T08:32:26Z</time>
      </trkpt>
      <trkpt lat="47.42783" lon="0.7064">
        <ele>101.5</ele>
        <time>2016-05-01T08:32:30Z</time>
      </trkpt>
      <trkpt lat="47.42788" lon="0.70628">
        <ele>101.3</ele>
        <time>2016-05-01T08:32:33Z</time>
      </trkpt>
      <trkpt lat="47.42792" lon="0.70616">
        <ele>101.1</ele>
        <time>2016-05-01T08:32:36Z</time>
      </trkpt>
      <trkpt lat="47.42799" lon="0.70605">
        <ele>100.9</ele>
        <time>2016-05-01T08:32:39Z</time>
      </trkpt>
      <trkpt lat="47.42808" lon="0.70598">
        <ele>100.7</ele>
        <time>2016-05-01T08:32:42Z</time>
      </trkpt>
      <trkpt lat="47.42817" lon="0.70593">
        <ele>100.5</ele>
        <time>2016-05-01T08:32:45Z</time>
      </trkpt>
      <trkpt lat="47.42826" lon="0.70586">
        <ele>100.4</ele>
        <time>2016-05-01T08:32:48Z</time>
      </trkpt>
      <trkpt lat="47.42834" lon="0.70579">
        <ele>100.2</ele>
        <time>2016-05-01T08:32:51Z</time>
      </trkpt>
      <trkpt lat="47.42844" lon="0.70568">
        <ele>100</ele>
        <time>2016-05-01T08:32:55Z</time>
      </trkpt>
      <trkpt lat="47.42854" lon="0.70565">
        <ele>100</ele>
        <time>2016-05-01T08:32:59Z</time>
      </trkpt>
      <trkpt lat="47.42859" lon="0.70577">
        <ele>100</ele>
        <time>2016-05-01T08:33:02Z</time>
      </trkpt>
      <trkpt lat="47.42863" lon="0.70589">
        <ele>100</ele>
        <time>2016-05-01T08:33:05Z</time>
      </trkpt>
      <trkpt lat="47.42868" lon="0.70605">
        <ele>100</ele>
        <time>2016-05-01T08:33:09Z</time>
      </trkpt>
      <trkpt lat="47.42874" lon="0.70621">
        <ele>100</ele>
        <time>2016-05-01T08:33:13Z</time>
      </trkpt>
      <trkpt lat="47.4288" lon="0.70636">
        <ele>100</ele>
        <time>2016-05-01T08:33:17Z</time>
      </trkpt>
      <trkpt lat="47.42885" lon="0.70649">
        <ele>100.1</ele>
        <time>2016-05-01T08:33:21Z</time>
      </trkpt>
      <trkpt lat="47.42891" lon="0.70663">
        <ele>100.2</ele>
        <time>2016-05-01T08:33:25Z</time>
      </trkpt>
      <trkpt lat="47.42897" lon="0.70677">
        <ele>100.5</ele>
        <time>2016-05-01T08:33:29Z</time>
      </trkpt>
      <trkpt lat="47.42903" lon="0.70691">
        <ele>100.9</ele>
        <time>2016-05-01T08:33:33Z</time>
      </trkpt>
      <trkpt lat="47.42905" lon="0.70707">
        <ele>101.3</ele>
        <time>2016-05-01T08:33:37Z</time>
      </trkpt>
      <trkpt lat="47.42897" lon="0.70715">
        <ele>101.6</ele>
        <time>2016-05-01T08:33:40Z</time>
      </trkpt>
      <trkpt lat="47.42887" lon="0.70723">
        <ele>102</ele>
        <time>2016-05-01T08:33:44Z</time>
      </trkpt>
      <trkpt lat="47.42876" lon="0.7073">
        <ele>102.4</ele>
        <time>2016-05-01T08:33:48Z</time>
      </trkpt>
      <trkpt lat="47.42866" lon="0.70739">
        <ele>102.7</ele>
        <time>2016-05-01T08:33:52Z</time>
      </trkpt>
      <trkpt lat="47.42857" lon="0.70749">
        <ele>103.1</ele>
        <time>2016-05-01T08:33:56Z</time>
      </trkpt>
      <trkpt lat="47.42848" lon="0.70757">
        <ele>103.1</ele>
        <time>2016-05-01T08:34:00Z</time>
      </trkpt>
      <trkpt lat="47.42839" lon="0.70764">
        <ele>103.2</ele>
        <time>2016-05-01T08:34:04Z</time>
      </trkpt>
      <trkpt lat="47.4283" lon="0.70771">
        <ele>103.3</ele>
        <time>2016-05-01T08:34:08Z</time>
      </trkpt>
      <trkpt lat="47.42821" lon="0.70778">
        <ele>103.1</ele>
        <time>2016-05-01T08:34:12Z</time>
      </trkpt>
      <trkpt lat="47.42813" lon="0.70785">
        <ele>102.9</ele>
        <time>2016-05-01T08:34:15Z</time>
      </trkpt>
      <trkpt lat="47.42803" lon="0.70793">
        <ele>102.7</ele>
        <time>2016-05-01T08:34:19Z</time>
      </trkpt>
      <trkpt lat="47.42793" lon="0.70801">
        <ele>102.5</ele>
        <time>2016-05-01T08:34:23Z</time>
      </trkpt>
      <trkpt lat="47.42785" lon="0.70808">
        <ele>102.4</ele>
        <time>2016-05-01T08:34:26Z</time>
      </trkpt>
      <trkpt lat="47.42776" lon="0.70817">
        <ele>102.2</ele>
        <time>2016-05-01T08:34:30Z</time>
      </trkpt>
      <trkpt lat="47.42766" lon="0.70826">
        <ele>102</ele>
        <time>2016-05-01T08:34:34Z</time>
      </trkpt>
      <trkpt lat="47.42758" lon="0.70832">
        <ele>101.9</ele>
        <time>2016-05-01T08:34:38Z</time>
      </trkpt>
      <trkpt lat="47.42749" lon="0.7083">
        <ele>102.2</ele>
        <time>2016-05-01T08:34:42Z</time>
      </trkpt>
      <trkpt lat="47.4274" lon="0.70825">
        <ele>102.3</ele>
        <time>2016-05-01T08:34:46Z</time>
      </trkpt>
      <trkpt lat="47.4273" lon="0.7082">
        <ele>102.4</ele>
        <time>2016-05-01T08:34:50Z</time>
      </trkpt>
      <trkpt lat="47.42721" lon="0.70816">
        <ele>102.5</ele>
        <time>2016-05-01T08:34:54Z</time>
      </trkpt>
      <trkpt lat="47.42711" lon="0.70817">
        <ele>102.5</ele>
        <time>2016-05-01T08:34:58Z</time>
      </trkpt>
      <trkpt lat="47.42701" lon="0.70821">
        <ele>102.6</ele>
        <time>2016-05-01T08:35:02Z</time>
      </trkpt>
      <trkpt lat="47.4269" lon="0.70823">
        <ele>102.7</ele>
        <time>2016-05-01T08:35:06Z</time>
      </trkpt>
      <trkpt lat="47.42678" lon="0.70827">
        <ele>102.8</ele>
        <time>2016-05-01T08:35:10Z</time>
      </trkpt>
      <trkpt lat="47.42669" lon="0.70834">
        <ele>103</ele>
        <time>2016-05-01T08:35:14Z</time>
      </trkpt>
      <trkpt lat="47.4266" lon="0.70844">
        <ele>103.2</ele>
        <time>2016-05-01T08:35:18Z</time>
      </trkpt>
      <trkpt lat="47.42652" lon="0.70853">
        <ele>103.4</ele>
        <time>2016-05-01T08:35:22Z</time>
      </trkpt>
      <trkpt lat="47.42644" lon="0.70862">
        <ele>103.5</ele>
        <time>2016-05-01T08:35:26Z</time>
      </trkpt>
      <trkpt lat="47.42635" lon="0.7087">
        <ele>103.7</ele>
        <time>2016-05-01T08:35:30Z</time>
      </trkpt>
      <trkpt lat="47.42626" lon="0.70878">
        <ele>103.9</ele>
        <time>2016-05-01T08:35:33Z</time>
      </trkpt>
      <trkpt lat="47.42618" lon="0.70885">
        <ele>104.1</ele>
        <time>2016-05-01T08:35:36Z</time>
      </trkpt>
      <trkpt lat="47.42608" lon="0.70895">
        <ele>104.3</ele>
        <time>2016-05-01T08:35:40Z</time>
      </trkpt>
      <trkpt lat="47.42597" lon="0.70904">
        <ele>104.5</ele>
        <time>2016-05-01T08:35:44Z</time>
      </trkpt>
      <trkpt lat="47.42589" lon="0.70914">
        <ele>104.7</ele>
        <time>2016-05-01T08:35:48Z</time>
      </trkpt>
      <trkpt lat="47.42581" lon="0.70922">
        <ele>105</ele>
        <time>2016-05-01T08:35:51Z</time>
      </trkpt>
      <trkpt lat="47.42571" lon="0.70931">
        <ele>105.2</ele>
        <time>2016-05-01T08:35:55Z</time>
      </trkpt>
      <trkpt lat="47.42562" lon="0.7094">
        <ele>105.4</ele>
        <time>2016-05-01T08:35:59Z</time>
      </trkpt>
      <trkpt lat="47.42553" lon="0.70947">
        <ele>105.5</ele>
        <time>2016-05-01T08:36:03Z</time>
      </trkpt>
      <trkpt lat="47.42543" lon="0.70952">
        <ele>105.5</ele>
        <time>2016-05-01T08:36:07Z</time>
      </trkpt>
      <trkpt lat="47.42533" lon="0.70957">
        <ele>105.5</ele>
        <time>2016-05-01T08:36:10Z</time>
      </trkpt>
      <trkpt lat="47.42524" lon="0.7096">
        <ele>105.5</ele>
        <time>2016-05-01T08:36:13Z</time>
      </trkpt>
      <trkpt lat="47.42515" lon="0.70963">
        <ele>105.5</ele>
        <time>2016-05-01T08:36:16Z</time>
      </trkpt>
      <trkpt lat="47.42504" lon="0.70967">
        <ele>105.5</ele>
        <time>2016-05-01T08:36:20Z</time>
      </trkpt>
      <trkpt lat="47.42494" lon="0.7097">
        <ele>105.5</ele>
        <time>2016-05-01T08:36:24Z</time>
      </trkpt>
      <trkpt lat="47.42483" lon="0.70973">
        <ele>105.5</ele>
        <time>2016-05-01T08:36:28Z</time>
      </trkpt>
      <trkpt lat="47.42473" lon="0.70973">
        <ele>105.4</ele>
        <time>2016-05-01T08:36:32Z</time>
      </trkpt>
      <trkpt lat="47.42463" lon="0.70973">
        <ele>105.3</ele>
        <time>2016-05-01T08:36:36Z</time>
      </trkpt>
      <trkpt lat="47.42453" lon="0.70973">
        <ele>105.2</ele>
        <time>2016-05-01T08:36:39Z</time>
      </trkpt>
      <trkpt lat="47.42443" lon="0.70974">
        <ele>105.1</ele>
        <time>2016-05-01T08:36:42Z</time>
      </trkpt>
      <trkpt lat="47.42431" lon="0.70974">
        <ele>105</ele>
        <time>2016-05-01T08:36:46Z</time>
      </trkpt>
      <trkpt lat="47.4242" lon="0.70974">
        <ele>105.1</ele>
        <time>2016-05-01T08:36:50Z</time>
      </trkpt>
      <trkpt lat="47.42408" lon="0.70972">
        <ele>105.2</ele>
        <time>2016-05-01T08:36:54Z</time>
      </trkpt>
      <trkpt lat="47.42399" lon="0.70972">
        <ele>105.3</ele>
        <time>2016-05-01T08:36:57Z</time>
      </trkpt>
      <trkpt lat="47.4239" lon="0.70969">
        <ele>105.4</ele>
        <time>2016-05-01T08:37:00Z</time>
      </trkpt>
      <trkpt lat="47.42381" lon="0.70963">
        <ele>105.5</ele>
        <time>2016-05-01T08:37:04Z</time>
      </trkpt>
      <trkpt lat="47.42374" lon="0.70952">
        <ele>105.5</ele>
        <time>2016-05-01T08:37:07Z</time>
      </trkpt>
      <trkpt lat="47.42366" lon="0.70939">
        <ele>105.6</ele>
        <time>2016-05-01T08:37:11Z</time>
      </trkpt>
      <trkpt lat="47.42362" lon="0.70927">
        <ele>105.7</ele>
        <time>2016-05-01T08:37:14Z</time>
      </trkpt>
      <trkpt lat="47.42358" lon="0.70913">
        <ele>105.8</ele>
        <time>2016-05-01T08:37:17Z</time>
      </trkpt>
      <trkpt lat="47.42353" lon="0.70897">
        <ele>105.9</ele>
        <time>2016-05-01T08:37:21Z</time>
      </trkpt>
      <trkpt lat="47.42349" lon="0.70884">
        <ele>106</ele>
        <time>2016-05-01T08:37:24Z</time>
      </trkpt>
      <trkpt lat="47.42344" lon="0.70869">
        <ele>106</ele>
        <time>2016-05-01T08:37:28Z</time>
      </trkpt>
      <trkpt lat="47.4234" lon="0.70852">
        <ele>105.9</ele>
        <time>2016-05-01T08:37:32Z</time>
      </trkpt>
      <trkpt lat="47.42333" lon="0.70842">
        <ele>105.8</ele>
        <time>2016-05-01T08:37:35Z</time>
      </trkpt>
      <trkpt lat="47.42323" lon="0.70842">
        <ele>105.7</ele>
        <time>2016-05-01T08:37:38Z</time>
      </trkpt>
      <trkpt lat="47.42314" lon="0.70847">
        <ele>105.6</ele>
        <time>2016-05-01T08:37:41Z</time>
      </trkpt>
      <trkpt lat="47.42302" lon="0.70849">
        <ele>105.5</ele>
        <time>2016-05-01T08:37:45Z</time>
      </trkpt>
      <trkpt lat="47.42293" lon="0.70849">
        <ele>105.5</ele>
        <time>2016-05-01T08:37:48Z</time>
      </trkpt>
      <trkpt lat="47.42283" lon="0.70849">
        <ele>105.4</ele>
        <time>2016-05-01T08:37:51Z</time>
      </trkpt>
      <trkpt lat="47.42274" lon="0.70849">
        <ele>105.3</ele>
        <time>2016-05-01T08:37:54Z</time>
      </trkpt>
      <trkpt lat="47.42264" lon="0.70849">
        <ele>105.2</ele>
        <time>2016-05-01T08:37:57Z</time>
      </trkpt>
      <trkpt lat="47.42252" lon="0.70849">
        <ele>105.1</ele>
        <time>2016-05-01T08:38:01Z</time>
      </trkpt>
      <trkpt lat="47.42243" lon="0.70848">
        <ele>105</ele>
        <time>2016-05-01T08:38:04Z</time>
      </trkpt>
      <trkpt lat="47.42232" lon="0.70851">
        <ele>105</ele>
        <time>2016-05-01T08:38:08Z</time>
      </trkpt>
      <trkpt lat="47.42224" lon="0.70857">
        <ele>105</ele>
        <time>2016-05-01T08:38:11Z</time>
      </trkpt>
      <trkpt lat="47.42217" lon="0.70867">
        <ele>105</ele>
        <time>2016-05-01T08:38:14Z</time>
      </trkpt>
      <trkpt lat="47.42214" lon="0.7088">
        <ele>105</ele>
        <time>2016-05-01T08:38:17Z</time>
      </trkpt>
      <trkpt lat="47.42211" lon="0.70894">
        <ele>105</ele>
        <time>2016-05-01T08:38:20Z</time>
      </trkpt>
      <trkpt lat="47.42209" lon="0.70907">
        <ele>104.9</ele>
        <time>2016-05-01T08:38:23Z</time>
      </trkpt>
      <trkpt lat="47.42207" lon="0.70921">
        <ele>104.8</ele>
        <time>2016-05-01T08:38:26Z</time>
      </trkpt>
      <trkpt lat="47.42203" lon="0.70938">
        <ele>104.7</ele>
        <time>2016-05-01T08:38:30Z</time>
      </trkpt>
      <trkpt lat="47.42201" lon="0.70951">
        <ele>104.6</ele>
        <time>2016-05-01T08:38:33Z</time>
      </trkpt>
      <trkpt lat="47.42198" lon="0.70965">
        <ele>104.5</ele>
        <time>2016-05-01T08:38:36Z</time>
      </trkpt>
      <trkpt lat="47.42195" lon="0.70981">
        <ele>104.4</ele>
        <time>2016-05-01T08:38:39Z</time>
      </trkpt>
      <trkpt lat="47.42194" lon="0.70996">
        <ele>104.2</ele>
        <time>2016-05-01T08:38:42Z</time>
      </trkpt>
      <trkpt lat="47.42193" lon="0.71009">
        <ele>104</ele>
        <time>2016-05-01T08:38:45Z</time>
      </trkpt>
      <trkpt lat="47.4219" lon="0.71023">
        <ele>103.8</ele>
        <time>2016-05-01T08:38:48Z</time>
      </trkpt>
      <trkpt lat="47.42188" lon="0.7104">
        <ele>103.6</ele>
        <time>2016-05-01T08:38:52Z</time>
      </trkpt>
      <trkpt lat="47.42187" lon="0.71056">
        <ele>103.5</ele>
        <time>2016-05-01T08:38:56Z</time>
      </trkpt>
      <trkpt lat="47.42186" lon="0.71074">
        <ele>103.3</ele>
        <time>2016-05-01T08:39:00Z</time>
      </trkpt>
      <trkpt lat="47.42186" lon="0.71091">
        <ele>103.1</ele>
        <time>2016-05-01T08:39:04Z</time>
      </trkpt>
      <trkpt lat="47.42183" lon="0.71108">
        <ele>102.9</ele>
        <time>2016-05-01T08:39:08Z</time>
      </trkpt>
      <trkpt lat="47.42179" lon="0.71121">
        <ele>102.7</ele>
        <time>2016-05-01T08:39:11Z</time>
      </trkpt>
      <trkpt lat="47.42175" lon="0.71133">
        <ele>102.5</ele>
        <time>2016-05-01T08:39:14Z</time>
      </trkpt>
      <trkpt lat="47.4217" lon="0.71146">
        <ele>102.5</ele>
        <time>2016-05-01T08:39:17Z</time>
      </trkpt>
      <trkpt lat="47.42164" lon="0.71157">
        <ele>102.3</ele>
        <time>2016-05-01T08:39:20Z</time>
      </trkpt>
      <trkpt lat="47.42159" lon="0.71168">
        <ele>102.1</ele>
        <time>2016-05-01T08:39:23Z</time>
      </trkpt>
      <trkpt lat="47.42154" lon="0.71179">
        <ele>101.9</ele>
        <time>2016-05-01T08:39:26Z</time>
      </trkpt>
      <trkpt lat="47.4215" lon="0.71192">
        <ele>101.9</ele>
        <time>2016-05-01T08:39:29Z</time>
      </trkpt>
      <trkpt lat="47.42145" lon="0.71208">
        <ele>101.9</ele>
        <time>2016-05-01T08:39:33Z</time>
      </trkpt>
      <trkpt lat="47.42142" lon="0.71222">
        <ele>102</ele>
        <time>2016-05-01T08:39:36Z</time>
      </trkpt>
      <trkpt lat="47.42137" lon="0.71239">
        <ele>102.1</ele>
        <time>2016-05-01T08:39:40Z</time>
      </trkpt>
      <trkpt lat="47.42132" lon="0.71254">
        <ele>102.2</ele>
        <time>2016-05-01T08:39:44Z</time>
      </trkpt>
      <trkpt lat="47.42125" lon="0.71262">
        <ele>102.3</ele>
        <time>2016-05-01T08:39:47Z</time>
      </trkpt>
      <trkpt lat="47.42115" lon="0.71265">
        <ele>102.4</ele>
        <time>2016-05-01T08:39:51Z</time>
      </trkpt>
      <trkpt lat="47.42105" lon="0.71267">
        <ele>102.5</ele>
        <time>2016-05-01T08:39:54Z</time>
      </trkpt>
      <trkpt lat="47.42096" lon="0.71268">
        <ele>102.6</ele>
        <time>2016-05-01T08:39:57Z</time>
      </trkpt>
      <trkpt lat="47.42086" lon="0.7127">
        <ele>102.6</ele>
        <time>2016-05-01T08:40:00Z</time>
      </trkpt>
      <trkpt lat="47.42077" lon="0.71273">
        <ele>102.6</ele>
        <time>2016-05-01T08:40:03Z</time>
      </trkpt>
      <trkpt lat="47.42068" lon="0.71278">
        <ele>102.5</ele>
        <time>2016-05-01T08:40:06Z</time>
      </trkpt>
      <trkpt lat="47.42059" lon="0.71282">
        <ele>102</ele>
        <time>2016-05-01T08:40:09Z</time>
      </trkpt>
      <trkpt lat="47.4205" lon="0.71285">
        <ele>101.5</ele>
        <time>2016-05-01T08:40:12Z</time>
      </trkpt>
      <trkpt lat="47.42041" lon="0.71289">
        <ele>101.1</ele>
        <time>2016-05-01T08:40:15Z</time>
      </trkpt>
      <trkpt lat="47.42032" lon="0.71294">
        <ele>100.6</ele>
        <time>2016-05-01T08:40:18Z</time>
      </trkpt>
      <trkpt lat="47.42022" lon="0.71299">
        <ele>100.2</ele>
        <time>2016-05-01T08:40:21Z</time>
      </trkpt>
      <trkpt lat="47.42012" lon="0.71305">
        <ele>99.7</ele>
        <time>2016-05-01T08:40:24Z</time>
      </trkpt>
      <trkpt lat="47.42004" lon="0.71311">
        <ele>99.5</ele>
        <time>2016-05-01T08:40:27Z</time>
      </trkpt>
      <trkpt lat="47.41995" lon="0.71318">
        <ele>99.2</ele>
        <time>2016-05-01T08:40:30Z</time>
      </trkpt>
      <trkpt lat="47.41986" lon="0.71324">
        <ele>99.1</ele>
        <time>2016-05-01T08:40:33Z</time>
      </trkpt>
      <trkpt lat="47.41975" lon="0.71331">
        <ele>99</ele>
        <time>2016-05-01T08:40:37Z</time>
      </trkpt>
      <trkpt lat="47.41966" lon="0.71336">
        <ele>98.8</ele>
        <time>2016-05-01T08:40:40Z</time>
      </trkpt>
      <trkpt lat="47.41956" lon="0.71342">
        <ele>98.9</ele>
        <time>2016-05-01T08:40:44Z</time>
      </trkpt>
      <trkpt lat="47.41946" lon="0.71343">
        <ele>99</ele>
        <time>2016-05-01T08:40:48Z</time>
      </trkpt>
      <trkpt lat="47.41942" lon="0.71326">
        <ele>99.1</ele>
        <time>2016-05-01T08:40:53Z</time>
      </trkpt>
      <trkpt lat="47.41941" lon="0.7131">
        <ele>99.2</ele>
        <time>2016-05-01T08:40:57Z</time>
      </trkpt>
      <trkpt lat="47.41938" lon="0.71293">
        <ele>99.2</ele>
        <time>2016-05-01T08:41:01Z</time>
      </trkpt>
      <trkpt lat="47.41936" lon="0.71277">
        <ele>99.2</ele>
        <time>2016-05-01T08:41:05Z</time>
      </trkpt>
      <trkpt lat="47.41935" lon="0.71262">
        <ele>99</ele>
        <time>2016-05-01T08:41:09Z</time>
      </trkpt>
      <trkpt lat="47.41933" lon="0.71246">
        <ele>98.8</ele>
        <time>2016-05-01T08:41:13Z</time>
      </trkpt>
      <trkpt lat="47.41931" lon="0.7123">
        <ele>98.6</ele>
        <time>2016-05-01T08:41:17Z</time>
      </trkpt>
      <trkpt lat="47.41931" lon="0.71212">
        <ele>98.5</ele>
        <time>2016-05-01T08:41:21Z</time>
      </trkpt>
      <trkpt lat="47.41933" lon="0.71197">
        <ele>98.4</ele>
        <time>2016-05-01T08:41:25Z</time>
      </trkpt>
      <trkpt lat="47.41937" lon="0.71181">
        <ele>98.3</ele>
        <time>2016-05-01T08:41:29Z</time>
      </trkpt>
      <trkpt lat="47.41938" lon="0.71166">
        <ele>98.2</ele>
        <time>2016-05-01T08:41:33Z</time>
      </trkpt>
      <trkpt lat="47.41933" lon="0.7115">
        <ele>98.1</ele>
        <time>2016-05-01T08:41:37Z</time>
      </trkpt>
      <trkpt lat="47.41929" lon="0.71136">
        <ele>98</ele>
        <time>2016-05-01T08:41:40Z</time>
      </trkpt>
      <trkpt lat="47.41926" lon="0.71123">
        <ele>98.2</ele>
        <time>2016-05-01T08:41:43Z</time>
      </trkpt>
      <trkpt lat="47.41923" lon="0.71107">
        <ele>98.4</ele>
        <time>2016-05-01T08:41:47Z</time>
      </trkpt>
      <trkpt lat="47.4192" lon="0.71091">
        <ele>98.5</ele>
        <time>2016-05-01T08:41:51Z</time>
      </trkpt>
      <trkpt lat="47.41917" lon="0.71078">
        <ele>98.7</ele>
        <time>2016-05-01T08:41:54Z</time>
      </trkpt>
      <trkpt lat="47.41915" lon="0.71063">
        <ele>98.9</ele>
        <time>2016-05-01T08:41:58Z</time>
      </trkpt>
      <trkpt lat="47.41913" lon="0.71049">
        <ele>99.1</ele>
        <time>2016-05-01T08:42:02Z</time>
      </trkpt>
      <trkpt lat="47.4191" lon="0.71034">
        <ele>99.3</ele>
        <time>2016-05-01T08:42:06Z</time>
      </trkpt>
      <trkpt lat="47.41909" lon="0.71018">
        <ele>99.6</ele>
        <time>2016-05-01T08:42:10Z</time>
      </trkpt>
      <trkpt lat="47.41907" lon="0.71002">
        <ele>100.2</ele>
        <time>2016-05-01T08:42:14Z</time>
      </trkpt>
      <trkpt lat="47.41904" lon="0.70986">
        <ele>100.7</ele>
        <time>2016-05-01T08:42:18Z</time>
      </trkpt>
      <trkpt lat="47.41898" lon="0.70976">
        <ele>101.3</ele>
        <time>2016-05-01T08:42:22Z</time>
      </trkpt>
      <trkpt lat="47.41887" lon="0.70971">
        <ele>101.6</ele>
        <time>2016-05-01T08:42:27Z</time>
      </trkpt>
      <trkpt lat="47.41879" lon="0.70962">
        <ele>102</ele>
        <time>2016-05-01T08:42:30Z</time>
      </trkpt>
      <trkpt lat="47.41871" lon="0.70954">
        <ele>102.4</ele>
        <time>2016-05-01T08:42:33Z</time>
      </trkpt>
      <trkpt lat="47.41863" lon="0.70947">
        <ele>102.7</ele>
        <time>2016-05-01T08:42:36Z</time>
      </trkpt>
      <trkpt lat="47.41853" lon="0.7094">
        <ele>103.1</ele>
        <time>2016-05-01T08:42:39Z</time>
      </trkpt>
      <trkpt lat="47.41844" lon="0.70937">
        <ele>103.5</ele>
        <time>2016-05-01T08:42:42Z</time>
      </trkpt>
      <trkpt lat="47.41835" lon="0.70929">
        <ele>103.6</ele>
        <time>2016-05-01T08:42:47Z</time>
      </trkpt>
      <trkpt lat="47.41824" lon="0.70924">
        <ele>103.6</ele>
        <time>2016-05-01T08:42:52Z</time>
      </trkpt>
      <trkpt lat="47.41814" lon="0.7092">
        <ele>103.5</ele>
        <time>2016-05-01T08:42:55Z</time>
      </trkpt>
      <trkpt lat="47.41805" lon="0.70914">
        <ele>103.3</ele>
        <time>2016-05-01T08:42:58Z</time>
      </trkpt>
      <trkpt lat="47.41798" lon="0.70905">
        <ele>103.1</ele>
        <time>2016-05-01T08:43:02Z</time>
      </trkpt>
      <trkpt lat="47.41788" lon="0.70898">
        <ele>102.9</ele>
        <time>2016-05-01T08:43:06Z</time>
      </trkpt>
      <trkpt lat="47.41778" lon="0.70888">
        <ele>102.7</ele>
        <time>2016-05-01T08:43:10Z</time>
      </trkpt>
      <trkpt lat="47.4177" lon="0.70879">
        <ele>102.5</ele>
        <time>2016-05-01T08:43:14Z</time>
      </trkpt>
      <trkpt lat="47.41774" lon="0.70865">
        <ele>102.5</ele>
        <time>2016-05-01T08:43:18Z</time>
      </trkpt>
      <trkpt lat="47.41776" lon="0.70848">
        <ele>102.5</ele>
        <time>2016-05-01T08:43:22Z</time>
      </trkpt>
      <trkpt lat="47.41778" lon="0.70835">
        <ele>102.5</ele>
        <time>2016-05-01T08:43:26Z</time>
      </trkpt>
      <trkpt lat="47.41779" lon="0.7082">
        <ele>102.7</ele>
        <time>2016-05-01T08:43:30Z</time>
      </trkpt>
      <trkpt lat="47.41781" lon="0.70803">
        <ele>102.9</ele>
        <time>2016-05-01T08:43:34Z</time>
      </trkpt>
      <trkpt lat="47.41783" lon="0.70789">
        <ele>103</ele>
        <time>2016-05-01T08:43:38Z</time>
      </trkpt>
      <trkpt lat="47.41784" lon="0.70775">
        <ele>103.1</ele>
        <time>2016-05-01T08:43:42Z</time>
      </trkpt>
      <trkpt lat="47.41785" lon="0.70758">
        <ele>103.2</ele>
        <time>2016-05-01T08:43:47Z</time>
      </trkpt>
      <trkpt lat="47.41786" lon="0.70743">
        <ele>103.3</ele>
        <time>2016-05-01T08:43:51Z</time>
      </trkpt>
      <trkpt lat="47.4179" lon="0.70727">
        <ele>103.7</ele>
        <time>2016-05-01T08:43:55Z</time>
      </trkpt>
      <trkpt lat="47.4179" lon="0.7071">
        <ele>104.2</ele>
        <time>2016-05-01T08:43:59Z</time>
      </trkpt>
      <trkpt lat="47.41792" lon="0.70696">
        <ele>104.2</ele>
        <time>2016-05-01T08:44:03Z</time>
      </trkpt>
      <trkpt lat="47.41794" lon="0.70681">
        <ele>104.2</ele>
        <time>2016-05-01T08:44:07Z</time>
      </trkpt>
      <trkpt lat="47.41794" lon="0.70663">
        <ele>104.5</ele>
        <time>2016-05-01T08:44:11Z</time>
      </trkpt>
      <trkpt lat="47.41796" lon="0.70649">
        <ele>104.7</ele>
        <time>2016-05-01T08:44:14Z</time>
      </trkpt>
      <trkpt lat="47.41798" lon="0.70635">
        <ele>105</ele>
        <time>2016-05-01T08:44:17Z</time>
      </trkpt>
      <trkpt lat="47.41803" lon="0.70624">
        <ele>105.4</ele>
        <time>2016-05-01T08:44:20Z</time>
      </trkpt>
      <trkpt lat="47.41813" lon="0.70627">
        <ele>105.7</ele>
        <time>2016-05-01T08:44:25Z</time>
      </trkpt>
      <trkpt lat="47.41822" lon="0.70635">
        <ele>106.1</ele>
        <time>2016-05-01T08:44:29Z</time>
      </trkpt>
      <trkpt lat="47.41831" lon="0.70642">
        <ele>106.4</ele>
        <time>2016-05-01T08:44:32Z</time>
      </trkpt>
      <trkpt lat="47.41841" lon="0.70647">
        <ele>106.3</ele>
        <time>2016-05-01T08:44:36Z</time>
      </trkpt>
      <trkpt lat="47.4185" lon="0.70649">
        <ele>106.2</ele>
        <time>2016-05-01T08:44:39Z</time>
      </trkpt>
      <trkpt lat="47.41862" lon="0.70652">
        <ele>106.4</ele>
        <time>2016-05-01T08:44:43Z</time>
      </trkpt>
      <trkpt lat="47.4187" lon="0.70655">
        <ele>106.5</ele>
        <time>2016-05-01T08:44:47Z</time>
      </trkpt>
      <trkpt lat="47.41882" lon="0.70657">
        <ele>106.5</ele>
        <time>2016-05-01T08:44:51Z</time>
      </trkpt>
      <trkpt lat="47.41893" lon="0.70661">
        <ele>106.4</ele>
        <time>2016-05-01T08:44:55Z</time>
      </trkpt>
      <trkpt lat="47.41902" lon="0.70665">
        <ele>106.3</ele>
        <time>2016-05-01T08:44:59Z</time>
      </trkpt>
      <trkpt lat="47.41912" lon="0.70669">
        <ele>106</ele>
        <time>2016-05-01T08:45:04Z</time>
      </trkpt>
      <trkpt lat="47.41923" lon="0.70672">
        <ele>105.7</ele>
        <time>2016-05-01T08:45:09Z</time>
      </trkpt>
      <trkpt lat="47.41933" lon="0.70674">
        <ele>105.5</ele>
        <time>2016-05-01T08:45:12Z</time>
      </trkpt>
      <trkpt lat="47.41944" lon="0.70676">
        <ele>105.3</ele>
        <time>2016-05-01T08:45:15Z</time>
      </trkpt>
      <trkpt lat="47.41954" lon="0.70675">
        <ele>105.1</ele>
        <time>2016-05-01T08:45:18Z</time>
      </trkpt>
      <trkpt lat="47.41966" lon="0.70676">
        <ele>104.9</ele>
        <time>2016-05-01T08:45:22Z</time>
      </trkpt>
      <trkpt lat="47.41976" lon="0.70676">
        <ele>104.7</ele>
        <time>2016-05-01T08:45:25Z</time>
      </trkpt>
      <trkpt lat="47.41987" lon="0.70677">
        <ele>104.5</ele>
        <time>2016-05-01T08:45:29Z</time>
      </trkpt>
      <trkpt lat="47.41997" lon="0.70678">
        <ele>104.3</ele>
        <time>2016-05-01T08:45:33Z</time>
      </trkpt>
      <trkpt lat="47.42007" lon="0.70677">
        <ele>104</ele>
        <time>2016-05-01T08:45:37Z</time>
      </trkpt>
      <trkpt lat="47.42018" lon="0.70676">
        <ele>103.7</ele>
        <time>2016-05-01T08:45:41Z</time>
      </trkpt>
      <trkpt lat="47.42029" lon="0.70673">
        <ele>103.6</ele>
        <time>2016-05-01T08:45:45Z</time>
      </trkpt>
      <trkpt lat="47.42041" lon="0.70669">
        <ele>103.5</ele>
        <time>2016-05-01T08:45:49Z</time>
      </trkpt>
      <trkpt lat="47.42053" lon="0.70664">
        <ele>103.5</ele>
        <time>2016-05-01T08:45:53Z</time>
      </trkpt>
      <trkpt lat="47.42063" lon="0.7066">
        <ele>103.3</ele>
        <time>2016-05-01T08:45:56Z</time>
      </trkpt>
      <trkpt lat="47.42071" lon="0.70655">
        <ele>103.1</ele>
        <time>2016-05-01T08:45:59Z</time>
      </trkpt>
      <trkpt lat="47.42082" lon="0.7065">
        <ele>102.9</ele>
        <time>2016-05-01T08:46:03Z</time>
      </trkpt>
      <trkpt lat="47.42091" lon="0.70644">
        <ele>103</ele>
        <time>2016-05-01T08:46:06Z</time>
      </trkpt>
      <trkpt lat="47.42098" lon="0.70636">
        <ele>103.1</ele>
        <time>2016-05-01T08:46:09Z</time>
      </trkpt>
      <trkpt lat="47.42108" lon="0.70627">
        <ele>103.3</ele>
        <time>2016-05-01T08:46:13Z</time>
      </trkpt>
      <trkpt lat="47.42118" lon="0.7062">
        <ele>103.5</ele>
        <time>2016-05-01T08:46:17Z</time>
      </trkpt>
      <trkpt lat="47.42127" lon="0.70612">
        <ele>103.6</ele>
        <time>2016-05-01T08:46:21Z</time>
      </trkpt>
      <trkpt lat="47.42136" lon="0.70604">
        <ele>103.8</ele>
        <time>2016-05-01T08:46:25Z</time>
      </trkpt>
      <trkpt lat="47.42145" lon="0.70597">
        <ele>104</ele>
        <time>2016-05-01T08:46:29Z</time>
      </trkpt>
      <trkpt lat="47.42156" lon="0.70592">
        <ele>104.2</ele>
        <time>2016-05-01T08:46:33Z</time>
      </trkpt>
      <trkpt lat="47.42166" lon="0.70587">
        <ele>104.5</ele>
        <time>2016-05-01T08:46:37Z</time>
      </trkpt>
      <trkpt lat="47.42177" lon="0.70584">
        <ele>104.7</ele>
        <time>2016-05-01T08:46:41Z</time>
      </trkpt>
      <trkpt lat="47.42187" lon="0.70584">
        <ele>105</ele>
        <time>2016-05-01T08:46:45Z</time>
      </trkpt>
      <trkpt lat="47.42197" lon="0.70584">
        <ele>105</ele>
        <time>2016-05-01T08:46:49Z</time>
      </trkpt>
      <trkpt lat="47.42208" lon="0.70587">
        <ele>105</ele>
        <time>2016-05-01T08:46:53Z</time>
      </trkpt>
      <trkpt lat="47.42218" lon="0.70589">
        <ele>104.9</ele>
        <time>2016-05-01T08:46:56Z</time>
      </trkpt>
      <trkpt lat="47.42227" lon="0.70586">
        <ele>104.8</ele>
        <time>2016-05-01T08:46:59Z</time>
      </trkpt>
      <trkpt lat="47.42233" lon="0.70576">
        <ele>104.7</ele>
        <time>2016-05-01T08:47:02Z</time>
      </trkpt>
      <trkpt lat="47.4223" lon="0.7056">
        <ele>104.6</ele>
        <time>2016-05-01T08:47:06Z</time>
      </trkpt>
      <trkpt lat="47.42223" lon="0.70547">
        <ele>104.5</ele>
        <time>2016-05-01T08:47:10Z</time>
      </trkpt>
      <trkpt lat="47.42217" lon="0.70536">
        <ele>104.5</ele>
        <time>2016-05-01T08:47:13Z</time>
      </trkpt>
      <trkpt lat="47.42211" lon="0.70521">
        <ele>104.3</ele>
        <time>2016-05-01T08:47:17Z</time>
      </trkpt>
      <trkpt lat="47.42205" lon="0.70507">
        <ele>104.1</ele>
        <time>2016-05-01T08:47:21Z</time>
      </trkpt>
      <trkpt lat="47.422" lon="0.70493">
        <ele>103.9</ele>
        <time>2016-05-01T08:47:25Z</time>
      </trkpt>
      <trkpt lat="47.42195" lon="0.70481">
        <ele>103.7</ele>
        <time>2016-05-01T08:47:28Z</time>
      </trkpt>
      <trkpt lat="47.42188" lon="0.70467">
        <ele>103.5</ele>
        <time>2016-05-01T08:47:32Z</time>
      </trkpt>
      <trkpt lat="47.42182" lon="0.70455">
        <ele>103.5</ele>
        <time>2016-05-01T08:47:36Z</time>
      </trkpt>
      <trkpt lat="47.42174" lon="0.70446">
        <ele>103.4</ele>
        <time>2016-05-01T08:47:39Z</time>
      </trkpt>
      <trkpt lat="47.42167" lon="0.70437">
        <ele>103.4</ele>
        <time>2016-05-01T08:47:42Z</time>
      </trkpt>
      <trkpt lat="47.42159" lon="0.7043">
        <ele>103.4</ele>
        <time>2016-05-01T08:47:45Z</time>
      </trkpt>
      <trkpt lat="47.42151" lon="0.70423">
        <ele>103.4</ele>
        <time>2016-05-01T08:47:48Z</time>
      </trkpt>
      <trkpt lat="47.42142" lon="0.70418">
        <ele>103.3</ele>
        <time>2016-05-01T08:47:51Z</time>
      </trkpt>
      <trkpt lat="47.42133" lon="0.70416">
        <ele>103.3</ele>
        <time>2016-05-01T08:47:54Z</time>
      </trkpt>
      <trkpt lat="47.42123" lon="0.70412">
        <ele>103.3</ele>
        <time>2016-05-01T08:47:57Z</time>
      </trkpt>
      <trkpt lat="47.42114" lon="0.70401">
        <ele>103.6</ele>
        <time>2016-05-01T08:48:01Z</time>
      </trkpt>
      <trkpt lat="47.4211" lon="0.70385">
        <ele>104</ele>
        <time>2016-05-01T08:48:05Z</time>
      </trkpt>
      <trkpt lat="47.42112" lon="0.70367">
        <ele>104.4</ele>
        <time>2016-05-01T08:48:09Z</time>
      </trkpt>
      <trkpt lat="47.42119" lon="0.70356">
        <ele>104.6</ele>
        <time>2016-05-01T08:48:12Z</time>
      </trkpt>
      <trkpt lat="47.42127" lon="0.70344">
        <ele>104.9</ele>
        <time>2016-05-01T08:48:16Z</time>
      </trkpt>
      <trkpt lat="47.42135" lon="0.70332">
        <ele>105.1</ele>
        <time>2016-05-01T08:48:20Z</time>
      </trkpt>
      <trkpt lat="47.42142" lon="0.7032">
        <ele>105.3</ele>
        <time>2016-05-01T08:48:24Z</time>
      </trkpt>
      <trkpt lat="47.4215" lon="0.70309">
        <ele>105.5</ele>
        <time>2016-05-01T08:48:28Z</time>
      </trkpt>
      <trkpt lat="47.42156" lon="0.70296">
        <ele>105.7</ele>
        <time>2016-05-01T08:48:32Z</time>
      </trkpt>
      <trkpt lat="47.42166" lon="0.70285">
        <ele>106</ele>
        <time>2016-05-01T08:48:36Z</time>
      </trkpt>
      <trkpt lat="47.42175" lon="0.70275">
        <ele>106.2</ele>
        <time>2016-05-01T08:48:40Z</time>
      </trkpt>
      <trkpt lat="47.42183" lon="0.70266">
        <ele>105.9</ele>
        <time>2016-05-01T08:48:44Z</time>
      </trkpt>
      <trkpt lat="47.42191" lon="0.70255">
        <ele>105.6</ele>
        <time>2016-05-01T08:48:48Z</time>
      </trkpt>
      <trkpt lat="47.42199" lon="0.70244">
        <ele>105.4</ele>
        <time>2016-05-01T08:48:52Z</time>
      </trkpt>
      <trkpt lat="47.42207" lon="0.70232">
        <ele>105.2</ele>
        <time>2016-05-01T08:48:56Z</time>
      </trkpt>
      <trkpt lat="47.42214" lon="0.70223">
        <ele>105</ele>
        <time>2016-05-01T08:48:59Z</time>
      </trkpt>
      <trkpt lat="47.42221" lon="0.70214">
        <ele>104.8</ele>
        <time>2016-05-01T08:49:02Z</time>
      </trkpt>
      <trkpt lat="47.4223" lon="0.70205">
        <ele>104.6</ele>
        <time>2016-05-01T08:49:06Z</time>
      </trkpt>
      <trkpt lat="47.4224" lon="0.70207">
        <ele>104.5</ele>
        <time>2016-05-01T08:49:10Z</time>
      </trkpt>
      <trkpt lat="47.42249" lon="0.70209">
        <ele>104.4</ele>
        <time>2016-05-01T08:49:14Z</time>
      </trkpt>
      <trkpt lat="47.42259" lon="0.70212">
        <ele>104.1</ele>
        <time>2016-05-01T08:49:18Z</time>
      </trkpt>
      <trkpt lat="47.4227" lon="0.70215">
        <ele>103.9</ele>
        <time>2016-05-01T08:49:22Z</time>
      </trkpt>
      <trkpt lat="47.42279" lon="0.70216">
        <ele>103.8</ele>
        <time>2016-05-01T08:49:25Z</time>
      </trkpt>
      <trkpt lat="47.42288" lon="0.70217">
        <ele>103.7</ele>
        <time>2016-05-01T08:49:28Z</time>
      </trkpt>
      <trkpt lat="47.42298" lon="0.70218">
        <ele>103.6</ele>
        <time>2016-05-01T08:49:31Z</time>
      </trkpt>
      <trkpt lat="47.42306" lon="0.7021">
        <ele>103.5</ele>
        <time>2016-05-01T08:49:34Z</time>
      </trkpt>
      <trkpt lat="47.42309" lon="0.70196">
        <ele>103.5</ele>
        <time>2016-05-01T08:49:37Z</time>
      </trkpt>
      <trkpt lat="47.42312" lon="0.70182">
        <ele>103.4</ele>
        <time>2016-05-01T08:49:40Z</time>
      </trkpt>
      <trkpt lat="47.42313" lon="0.70168">
        <ele>103.3</ele>
        <time>2016-05-01T08:49:43Z</time>
      </trkpt>
      <trkpt lat="47.42315" lon="0.70154">
        <ele>103.2</ele>
        <time>2016-05-01T08:49:46Z</time>
      </trkpt>
      <trkpt lat="47.42316" lon="0.7014">
        <ele>103</ele>
        <time>2016-05-01T08:49:49Z</time>
      </trkpt>
      <trkpt lat="47.42317" lon="0.70127">
        <ele>103</ele>
        <time>2016-05-01T08:49:52Z</time>
      </trkpt>
      <trkpt lat="47.42318" lon="0.7011">
        <ele>103</ele>
        <time>2016-05-01T08:49:56Z</time>
      </trkpt>
      <trkpt lat="47.4232" lon="0.70093">
        <ele>103</ele>
        <time>2016-05-01T08:50:00Z</time>
      </trkpt>
      <trkpt lat="47.42322" lon="0.70077">
        <ele>103</ele>
        <time>2016-05-01T08:50:04Z</time>
      </trkpt>
      <trkpt lat="47.42332" lon="0.7007">
        <ele>102.9</ele>
        <time>2016-05-01T08:50:09Z</time>
      </trkpt>
      <trkpt lat="47.42343" lon="0.70078">
        <ele>102.8</ele>
        <time>2016-05-01T08:50:13Z</time>
      </trkpt>
      <trkpt lat="47.42352" lon="0.70082">
        <ele>102.7</ele>
        <time>2016-05-01T08:50:16Z</time>
      </trkpt>
      <trkpt lat="47.42361" lon="0.70087">
        <ele>102.6</ele>
        <time>2016-05-01T08:50:19Z</time>
      </trkpt>
      <trkpt lat="47.42371" lon="0.70094">
        <ele>102.5</ele>
        <time>2016-05-01T08:50:23Z</time>
      </trkpt>
      <trkpt lat="47.4238" lon="0.70096">
        <ele>102.5</ele>
        <time>2016-05-01T08:50:27Z</time>
      </trkpt>
      <trkpt lat="47.42385" lon="0.70083">
        <ele>102.4</ele>
        <time>2016-05-01T08:50:30Z</time>
      </trkpt>
      <trkpt lat="47.42384" lon="0.70066">
        <ele>102.3</ele>
        <time>2016-05-01T08:50:33Z</time>
      </trkpt>
      <trkpt lat="47.42383" lon="0.70052">
        <ele>102.2</ele>
        <time>2016-05-01T08:50:36Z</time>
      </trkpt>
      <trkpt lat="47.42382" lon="0.70038">
        <ele>101.9</ele>
        <time>2016-05-01T08:50:39Z</time>
      </trkpt>
      <trkpt lat="47.42381" lon="0.70024">
        <ele>101.6</ele>
        <time>2016-05-01T08:50:42Z</time>
      </trkpt>
      <trkpt lat="47.4238" lon="0.70006">
        <ele>101.5</ele>
        <time>2016-05-01T08:50:46Z</time>
      </trkpt>
      <trkpt lat="47.42379" lon="0.69991">
        <ele>101.3</ele>
        <time>2016-05-01T08:50:49Z</time>
      </trkpt>
      <trkpt lat="47.42379" lon="0.69977">
        <ele>101.1</ele>
        <time>2016-05-01T08:50:52Z</time>
      </trkpt>
      <trkpt lat="47.42378" lon="0.69963">
        <ele>100.9</ele>
        <time>2016-05-01T08:50:55Z</time>
      </trkpt>
      <trkpt lat="47.42379" lon="0.69946">
        <ele>100.7</ele>
        <time>2016-05-01T08:50:59Z</time>
      </trkpt>
      <trkpt lat="47.42381" lon="0.6993">
        <ele>100.5</ele>
        <time>2016-05-01T08:51:03Z</time>
      </trkpt>
      <trkpt lat="47.42389" lon="0.69922">
        <ele>100.4</ele>
        <time>2016-05-01T08:51:07Z</time>
      </trkpt>
      <trkpt lat="47.424" lon="0.69925">
        <ele>100.2</ele>
        <time>2016-05-01T08:51:10Z</time>
      </trkpt>
      <trkpt lat="47.4241" lon="0.69927">
        <ele>100</ele>
        <time>2016-05-01T08:51:13Z</time>
      </trkpt>
      <trkpt lat="47.42419" lon="0.69929">
        <ele>100.2</ele>
        <time>2016-05-01T08:51:16Z</time>
      </trkpt>
      <trkpt lat="47.42428" lon="0.69929">
        <ele>100.4</ele>
        <time>2016-05-01T08:51:19Z</time>
      </trkpt>
      <trkpt lat="47.42439" lon="0.69933">
        <ele>100.5</ele>
        <time>2016-05-01T08:51:23Z</time>
      </trkpt>
      <trkpt lat="47.42449" lon="0.69943">
        <ele>100.5</ele>
        <time>2016-05-01T08:51:27Z</time>
      </trkpt>
      <trkpt lat="47.42459" lon="0.69954">
        <ele>100.6</ele>
        <time>2016-05-01T08:51:31Z</time>
      </trkpt>
      <trkpt lat="47.4247" lon="0.6996">
        <ele>100.7</ele>
        <time>2016-05-01T08:51:34Z</time>
      </trkpt>
      <trkpt lat="47.42479" lon="0.69968">
        <ele>100.8</ele>
        <time>2016-05-01T08:51:38Z</time>
      </trkpt>
      <trkpt lat="47.42489" lon="0.69975">
        <ele>100.9</ele>
        <time>2016-05-01T08:51:41Z</time>
      </trkpt>
      <trkpt lat="47.42497" lon="0.69982">
        <ele>101</ele>
        <time>2016-05-01T08:51:45Z</time>
      </trkpt>
      <trkpt lat="47.42503" lon="0.69993">
        <ele>101.1</ele>
        <time>2016-05-01T08:51:49Z</time>
      </trkpt>
      <trkpt lat="47.4251" lon="0.70004">
        <ele>101.1</ele>
        <time>2016-05-01T08:51:53Z</time>
      </trkpt>
      <trkpt lat="47.42518" lon="0.70015">
        <ele>100.9</ele>
        <time>2016-05-01T08:51:57Z</time>
      </trkpt>
      <trkpt lat="47.42526" lon="0.70024">
        <ele>100.7</ele>
        <time>2016-05-01T08:52:01Z</time>
      </trkpt>
      <trkpt lat="47.42534" lon="0.70036">
        <ele>100.6</ele>
        <time>2016-05-01T08:52:05Z</time>
      </trkpt>
      <trkpt lat="47.4254" lon="0.70046">
        <ele>100.5</ele>
        <time>2016-05-01T08:52:08Z</time>
      </trkpt>
      <trkpt lat="47.42548" lon="0.70054">
        <ele>100.5</ele>
        <time>2016-05-01T08:52:11Z</time>
      </trkpt>
      <trkpt lat="47.42558" lon="0.70064">
        <ele>100.4</ele>
        <time>2016-05-01T08:52:15Z</time>
      </trkpt>
      <trkpt lat="47.42565" lon="0.70073">
        <ele>100.3</ele>
        <time>2016-05-01T08:52:18Z</time>
      </trkpt>
      <trkpt lat="47.42572" lon="0.70082">
        <ele>100.3</ele>
        <time>2016-05-01T08:52:21Z</time>
      </trkpt>
      <trkpt lat="47.4258" lon="0.70093">
        <ele>100.3</ele>
        <time>2016-05-01T08:52:25Z</time>
      </trkpt>
      <trkpt lat="47.42586" lon="0.70106">
        <ele>100.3</ele>
        <time>2016-05-01T08:52:29Z</time>
      </trkpt>
      <trkpt lat="47.42582" lon="0.70122">
        <ele>100.5</ele>
        <time>2016-05-01T08:52:33Z</time>
      </trkpt>
      <trkpt lat="47.42576" lon="0.70133">
        <ele>100.6</ele>
        <time>2016-05-01T08:52:36Z</time>
      </trkpt>
      <trkpt lat="47.42569" lon="0.70144">
        <ele>100.8</ele>
        <time>2016-05-01T08:52:39Z</time>
      </trkpt>
      <trkpt lat="47.42564" lon="0.70156">
        <ele>101</ele>
        <time>2016-05-01T08:52:42Z</time>
      </trkpt>
      <trkpt lat="47.42557" lon="0.70169">
        <ele>101.2</ele>
        <time>2016-05-01T08:52:46Z</time>
      </trkpt>
      <trkpt lat="47.42547" lon="0.70172">
        <ele>101.4</ele>
        <time>2016-05-01T08:52:50Z</time>
      </trkpt>
      <trkpt lat="47.42535" lon="0.70168">
        <ele>101.5</ele>
        <time>2016-05-01T08:52:54Z</time>
      </trkpt>
      <trkpt lat="47.42524" lon="0.70165">
        <ele>101.7</ele>
        <time>2016-05-01T08:52:58Z</time>
      </trkpt>
      <trkpt lat="47.42515" lon="0.70162">
        <ele>101.8</ele>
        <time>2016-05-01T08:53:01Z</time>
      </trkpt>
      <trkpt lat="47.42506" lon="0.7016">
        <ele>101.9</ele>
        <time>2016-05-01T08:53:04Z</time>
      </trkpt>
      <trkpt lat="47.42496" lon="0.70157">
        <ele>102</ele>
        <time>2016-05-01T08:53:08Z</time>
      </trkpt>
      <trkpt lat="47.42484" lon="0.7016">
        <ele>102</ele>
        <time>2016-05-01T08:53:12Z</time>
      </trkpt>
      <trkpt lat="47.42475" lon="0.70155">
        <ele>102</ele>
        <time>2016-05-01T08:53:15Z</time>
      </trkpt>
      <trkpt lat="47.42465" lon="0.70153">
        <ele>102</ele>
        <time>2016-05-01T08:53:19Z</time>
      </trkpt>
      <trkpt lat="47.42455" lon="0.7015">
        <ele>102</ele>
        <time>2016-05-01T08:53:23Z</time>
      </trkpt>
      <trkpt lat="47.42445" lon="0.70145">
        <ele>102</ele>
        <time>2016-05-01T08:53:27Z</time>
      </trkpt>
      <trkpt lat="47.42434" lon="0.70139">
        <ele>102</ele>
        <time>2016-05-01T08:53:31Z</time>
      </trkpt>
      <trkpt lat="47.42422" lon="0.70136">
        <ele>102</ele>
        <time>2016-05-01T08:53:35Z</time>
      </trkpt>
      <trkpt lat="47.42416" lon="0.7015">
        <ele>102.2</ele>
        <time>2016-05-01T08:53:39Z</time>
      </trkpt>
      <trkpt lat="47.42417" lon="0.70163">
        <ele>102.4</ele>
        <time>2016-05-01T08:53:42Z</time>
      </trkpt>
      <trkpt lat="47.42416" lon="0.70178">
        <ele>102.5</ele>
        <time>2016-05-01T08:53:45Z</time>
      </trkpt>
      <trkpt lat="47.42418" lon="0.70195">
        <ele>102.7</ele>
        <time>2016-05-01T08:53:49Z</time>
      </trkpt>
      <trkpt lat="47.42417" lon="0.70211">
        <ele>102.9</ele>
        <time>2016-05-01T08:53:53Z</time>
      </trkpt>
      <trkpt lat="47.42415" lon="0.70228">
        <ele>103.1</ele>
        <time>2016-05-01T08:53:57Z</time>
      </trkpt>
      <trkpt lat="47.42414" lon="0.70244">
        <ele>103.3</ele>
        <time>2016-05-01T08:54:01Z</time>
      </trkpt>
      <trkpt lat="47.42414" lon="0.70259">
        <ele>103.5</ele>
        <time>2016-05-01T08:54:05Z</time>
      </trkpt>
      <trkpt lat="47.42415" lon="0.70275">
        <ele>103.6</ele>
        <time>2016-05-01T08:54:09Z</time>
      </trkpt>
      <trkpt lat="47.42414" lon="0.70292">
        <ele>103.8</ele>
        <time>2016-05-01T08:54:13Z</time>
      </trkpt>
      <trkpt lat="47.42412" lon="0.70308">
        <ele>103.9</ele>
        <time>2016-05-01T08:54:17Z</time>
      </trkpt>
      <trkpt lat="47.4241" lon="0.70322">
        <ele>103.8</ele>
        <time>2016-05-01T08:54:20Z</time>
      </trkpt>
      <trkpt lat="47.42409" lon="0.70339">
        <ele>103.7</ele>
        <time>2016-05-01T08:54:24Z</time>
      </trkpt>
      <trkpt lat="47.42408" lon="0.70356">
        <ele>103.6</ele>
        <time>2016-05-01T08:54:28Z</time>
      </trkpt>
      <trkpt lat="47.42408" lon="0.70373">
        <ele>103.5</ele>
        <time>2016-05-01T08:54:32Z</time>
      </trkpt>
      <trkpt lat="47.42407" lon="0.70389">
        <ele>103.6</ele>
        <time>2016-05-01T08:54:36Z</time>
      </trkpt>
      <trkpt lat="47.42403" lon="0.70405">
        <ele>103.7</ele>
        <time>2016-05-01T08:54:40Z</time>
      </trkpt>
      <trkpt lat="47.42401" lon="0.70421">
        <ele>103.8</ele>
        <time>2016-05-01T08:54:44Z</time>
      </trkpt>
      <trkpt lat="47.42396" lon="0.70436">
        <ele>103.9</ele>
        <time>2016-05-01T08:54:48Z</time>
      </trkpt>
      <trkpt lat="47.42391" lon="0.70451">
        <ele>104</ele>
        <time>2016-05-01T08:54:52Z</time>
      </trkpt>
      <trkpt lat="47.42386" lon="0.70467">
        <ele>104.1</ele>
        <time>2016-05-01T08:54:56Z</time>
      </trkpt>
      <trkpt lat="47.42382" lon="0.70483">
        <ele>104.3</ele>
        <time>2016-05-01T08:55:00Z</time>
      </trkpt>
      <trkpt lat="47.42381" lon="0.705">
        <ele>104.5</ele>
        <time>2016-05-01T08:55:04Z</time>
      </trkpt>
      <trkpt lat="47.42381" lon="0.70516">
        <ele>104.6</ele>
        <time>2016-05-01T08:55:08Z</time>
      </trkpt>
      <trkpt lat="47.42387" lon="0.7053">
        <ele>104.8</ele>
        <time>2016-05-01T08:55:12Z</time>
      </trkpt>
      <trkpt lat="47.42398" lon="0.70531">
        <ele>105</ele>
        <time>2016-05-01T08:55:15Z</time>
      </trkpt>
      <trkpt lat="47.42407" lon="0.7053">
        <ele>105</ele>
        <time>2016-05-01T08:55:18Z</time>
      </trkpt>
      <trkpt lat="47.42419" lon="0.70531">
        <ele>104.7</ele>
        <time>2016-05-01T08:55:22Z</time>
      </trkpt>
      <trkpt lat="47.42429" lon="0.70534">
        <ele>104.5</ele>
        <time>2016-05-01T08:55:26Z</time>
      </trkpt>
      <trkpt lat="47.42438" lon="0.70535">
        <ele>104.2</ele>
        <time>2016-05-01T08:55:30Z</time>
      </trkpt>
      <trkpt lat="47.42447" lon="0.70537">
        <ele>103.9</ele>
        <time>2016-05-01T08:55:33Z</time>
      </trkpt>
      <trkpt lat="47.42459" lon="0.70541">
        <ele>103.6</ele>
        <time>2016-05-01T08:55:37Z</time>
      </trkpt>
      <trkpt lat="47.42469" lon="0.70542">
        <ele>103.4</ele>
        <time>2016-05-01T08:55:41Z</time>
      </trkpt>
      <trkpt lat="47.42481" lon="0.70543">
        <ele>103.1</ele>
        <time>2016-05-01T08:55:45Z</time>
      </trkpt>
      <trkpt lat="47.4249" lon="0.70542">
        <ele>102.8</ele>
        <time>2016-05-01T08:55:48Z</time>
      </trkpt>
      <trkpt lat="47.42501" lon="0.70542">
        <ele>102.5</ele>
        <time>2016-05-01T08:55:52Z</time>
      </trkpt>
      <trkpt lat="47.42512" lon="0.70541">
        <ele>102.1</ele>
        <time>2016-05-01T08:55:56Z</time>
      </trkpt>
      <trkpt lat="47.42523" lon="0.70538">
        <ele>101.7</ele>
        <time>2016-05-01T08:56:00Z</time>
      </trkpt>
      <trkpt lat="47.42534" lon="0.70535">
        <ele>101.8</ele>
        <time>2016-05-01T08:56:04Z</time>
      </trkpt>
      <trkpt lat="47.42546" lon="0.70531">
        <ele>101.9</ele>
        <time>2016-05-01T08:56:08Z</time>
      </trkpt>
      <trkpt lat="47.42556" lon="0.70527">
        <ele>102</ele>
        <time>2016-05-01T08:56:12Z</time>
      </trkpt>
      <trkpt lat="47.42566" lon="0.70527">
        <ele>102.1</ele>
        <time>2016-05-01T08:56:16Z</time>
      </trkpt>
      <trkpt lat="47.42574" lon="0.70535">
        <ele>102.2</ele>
        <time>2016-05-01T08:56:19Z</time>
      </trkpt>
      <trkpt lat="47.4258" lon="0.7055">
        <ele>102.3</ele>
        <time>2016-05-01T08:56:23Z</time>
      </trkpt>
      <trkpt lat="47.42587" lon="0.70562">
        <ele>102.4</ele>
        <time>2016-05-01T08:56:27Z</time>
      </trkpt>
      <trkpt lat="47.42594" lon="0.70574">
        <ele>102.5</ele>
        <time>2016-05-01T08:56:31Z</time>
      </trkpt>
      <trkpt lat="47.42601" lon="0.70587">
        <ele>102.8</ele>
        <time>2016-05-01T08:56:35Z</time>
      </trkpt>
      <trkpt lat="47.42607" lon="0.70601">
        <ele>103.1</ele>
        <time>2016-05-01T08:56:39Z</time>
      </trkpt>
      <trkpt lat="47.42613" lon="0.70614">
        <ele>103.4</ele>
        <time>2016-05-01T08:56:43Z</time>
      </trkpt>
      <trkpt lat="47.42619" lon="0.70627">
        <ele>103.5</ele>
        <time>2016-05-01T08:56:47Z</time>
      </trkpt>
      <trkpt lat="47.42625" lon="0.70641">
        <ele>103.5</ele>
        <time>2016-05-01T08:56:51Z</time>
      </trkpt>
      <trkpt lat="47.42629" lon="0.70656">
        <ele>103.7</ele>
        <time>2016-05-01T08:56:55Z</time>
      </trkpt>
      <trkpt lat="47.42634" lon="0.70668">
        <ele>103.9</ele>
        <time>2016-05-01T08:56:59Z</time>
      </trkpt>
      <trkpt lat="47.42641" lon="0.70682">
        <ele>104.1</ele>
        <time>2016-05-01T08:57:03Z</time>
      </trkpt>
      <trkpt lat="47.42646" lon="0.70692">
        <ele>104.3</ele>
        <time>2016-05-01T08:57:06Z</time>
      </trkpt>
      <trkpt lat="47.42653" lon="0.70705">
        <ele>104.5</ele>
        <time>2016-05-01T08:57:10Z</time>
      </trkpt>
      <trkpt lat="47.42659" lon="0.70718">
        <ele>104.5</ele>
        <time>2016-05-01T08:57:14Z</time>
      </trkpt>
      <trkpt lat="47.42664" lon="0.70732">
        <ele>104.6</ele>
        <time>2016-05-01T08:57:18Z</time>
      </trkpt>
      <trkpt lat="47.4267" lon="0.70746">
        <ele>104.5</ele>
        <time>2016-05-01T08:57:22Z</time>
      </trkpt>
      <trkpt lat="47.42678" lon="0.70759">
        <ele>104.3</ele>
        <time>2016-05-01T08:57:26Z</time>
      </trkpt>
      <trkpt lat="47.42688" lon="0.70769">
        <ele>104.1</ele>
        <time>2016-05-01T08:57:30Z</time>
      </trkpt>
      <trkpt lat="47.42697" lon="0.70772">
        <ele>103.9</ele>
        <time>2016-05-01T08:57:33Z</time>
      </trkpt>
      <trkpt lat="47.42707" lon="0.70769">
        <ele>103.6</ele>
        <time>2016-05-01T08:57:36Z</time>
      </trkpt>
      <trkpt lat="47.42717" lon="0.70761">
        <ele>103.4</ele>
        <time>2016-05-01T08:57:39Z</time>
      </trkpt>
      <trkpt lat="47.42725" lon="0.70752">
        <ele>103.1</ele>
        <time>2016-05-01T08:57:42Z</time>
      </trkpt>
      <trkpt lat="47.42731" lon="0.70742">
        <ele>102.8</ele>
        <time>2016-05-01T08:57:45Z</time>
      </trkpt>
      <trkpt lat="47.42737" lon="0.70729">
        <ele>102.5</ele>
        <time>2016-05-01T08:57:49Z</time>
      </trkpt>
      <trkpt lat="47.42745" lon="0.70716">
        <ele>102.3</ele>
        <time>2016-05-01T08:57:53Z</time>
      </trkpt>
      <trkpt lat="47.42753" lon="0.70703">
        <ele>102</ele>
        <time>2016-05-01T08:57:57Z</time>
      </trkpt>
      <trkpt lat="47.42759" lon="0.70693">
        <ele>102</ele>
        <time>2016-05-01T08:58:00Z</time>
      </trkpt>
      <trkpt lat="47.42765" lon="0.7068">
        <ele>102</ele>
        <time>2016-05-01T08:58:04Z</time>
      </trkpt>
      <trkpt lat="47.4277" lon="0.70666">
        <ele>101.8</ele>
        <time>2016-05-01T08:58:08Z</time>
      </trkpt>
      <trkpt lat="47.42775" lon="0.70652">
        <ele>101.6</ele>
        <time>2016-05-01T08:58:12Z</time>
      </trkpt>
      <trkpt lat="47.42781" lon="0.70636">
        <ele>101.5</ele>
        <time>2016-05-01T08:58:16Z</time>
      </trkpt>
      <trkpt lat="47.42785" lon="0.70623">
        <ele>101.3</ele>
        <time>2016-05-01T08:58:19Z</time>
      </trkpt>
      <trkpt lat="47.42792" lon="0.7061">
        <ele>101.1</ele>
        <time>2016-05-01T08:58:23Z</time>
      </trkpt>
      <trkpt lat="47.428" lon="0.70603">
        <ele>100.9</ele>
        <time>2016-05-01T08:58:26Z</time>
      </trkpt>
      <trkpt lat="47.4281" lon="0.70593">
        <ele>100.7</ele>
        <time>2016-05-01T08:58:30Z</time>
      </trkpt>
      <trkpt lat="47.42818" lon="0.70583">
        <ele>100.5</ele>
        <time>2016-05-01T08:58:34Z</time>
      </trkpt>
      <trkpt lat="47.42828" lon="0.70575">
        <ele>100.4</ele>
        <time>2016-05-01T08:58:38Z</time>
      </trkpt>
      <trkpt lat="47.42839" lon="0.70567">
        <ele>100.2</ele>
        <time>2016-05-01T08:58:42Z</time>
      </trkpt>
      <trkpt lat="47.42849" lon="0.70563">
        <ele>100</ele>
        <time>2016-05-01T08:58:46Z</time>
      </trkpt>
      <trkpt lat="47.42855" lon="0.70574">
        <ele>100</ele>
        <time>2016-05-01T08:58:49Z</time>
      </trkpt>
      <trkpt lat="47.4286" lon="0.70586">
        <ele>100</ele>
        <time>2016-05-01T08:58:52Z</time>
      </trkpt>
      <trkpt lat="47.42866" lon="0.70601">
        <ele>100</ele>
        <time>2016-05-01T08:58:56Z</time>
      </trkpt>
      <trkpt lat="47.42872" lon="0.70616">
        <ele>100</ele>
        <time>2016-05-01T08:59:00Z</time>
      </trkpt>
      <trkpt lat="47.42878" lon="0.7063">
        <ele>100</ele>
        <time>2016-05-01T08:59:04Z</time>
      </trkpt>
      <trkpt lat="47.42883" lon="0.70645">
        <ele>100</ele>
        <time>2016-05-01T08:59:08Z</time>
      </trkpt>
      <trkpt lat="47.4289" lon="0.70658">
        <ele>100.1</ele>
        <time>2016-05-01T08:59:12Z</time>
      </trkpt>
      <trkpt lat="47.42895" lon="0.70671">
        <ele>100.2</ele>
        <time>2016-05-01T08:59:16Z</time>
      </trkpt>
      <trkpt lat="47.429" lon="0.70682">
        <ele>100.5</ele>
        <time>2016-05-01T08:59:19Z</time>
      </trkpt>
      <trkpt lat="47.42906" lon="0.70697">
        <ele>100.9</ele>
        <time>2016-05-01T08:59:23Z</time>
      </trkpt>
      <trkpt lat="47.42898" lon="0.70709">
        <ele>101.3</ele>
        <time>2016-05-01T08:59:27Z</time>
      </trkpt>
      <trkpt lat="47.4289" lon="0.70717">
        <ele>101.6</ele>
        <time>2016-05-01T08:59:30Z</time>
      </trkpt>
      <trkpt lat="47.42881" lon="0.70726">
        <ele>102</ele>
        <time>2016-05-01T08:59:34Z</time>
      </trkpt>
      <trkpt lat="47.42872" lon="0.70734">
        <ele>102.4</ele>
        <time>2016-05-01T08:59:38Z</time>
      </trkpt>
      <trkpt lat="47.42864" lon="0.70742">
        <ele>102.7</ele>
        <time>2016-05-01T08:59:41Z</time>
      </trkpt>
      <trkpt lat="47.42856" lon="0.70749">
        <ele>103.1</ele>
        <time>2016-05-01T08:59:44Z</time>
      </trkpt>
      <trkpt lat="47.42849" lon="0.70756">
        <ele>103.1</ele>
        <time>2016-05-01T08:59:47Z</time>
      </trkpt>
      <trkpt lat="47.42839" lon="0.70765">
        <ele>103.2</ele>
        <time>2016-05-01T08:59:51Z</time>
      </trkpt>
      <trkpt lat="47.4283" lon="0.70772">
        <ele>103.3</ele>
        <time>2016-05-01T08:59:55Z</time>
      </trkpt>
      <trkpt lat="47.4282" lon="0.70779">
        <ele>103.1</ele>
        <time>2016-05-01T08:59:59Z</time>
      </trkpt>
      <trkpt lat="47.42811" lon="0.70788">
        <ele>102.9</ele>
        <time>2016-05-01T09:00:03Z</time>
      </trkpt>
      <trkpt lat="47.42801" lon="0.70797">
        <ele>102.7</ele>
        <time>2016-05-01T09:00:07Z</time>
      </trkpt>
      <trkpt lat="47.42791" lon="0.70806">
        <ele>102.5</ele>
        <time>2016-05-01T09:00:11Z</time>
      </trkpt>
      <trkpt lat="47.42781" lon="0.70814">
        <ele>102.4</ele>
        <time>2016-05-01T09:00:15Z</time>
      </trkpt>
      <trkpt lat="47.42772" lon="0.70822">
        <ele>102.2</ele>
        <time>2016-05-01T09:00:19Z</time>
      </trkpt>
      <trkpt lat="47.42764" lon="0.70829">
        <ele>102</ele>
        <time>2016-05-01T09:00:22Z</time>
      </trkpt>
      <trkpt lat="47.42754" lon="0.7083">
        <ele>101.9</ele>
        <time>2016-05-01T09:00:26Z</time>
      </trkpt>
      <trkpt lat="47.42744" lon="0.70826">
        <ele>102.2</ele>
        <time>2016-05-01T09:00:30Z</time>
      </trkpt>
      <trkpt lat="47.42736" lon="0.70821">
        <ele>102.3</ele>
        <time>2016-05-01T09:00:33Z</time>
      </trkpt>
      <trkpt lat="47.42725" lon="0.70818">
        <ele>102.4</ele>
        <time>2016-05-01T09:00:37Z</time>
      </trkpt>
      <trkpt lat="47.42714" lon="0.70816">
        <ele>102.5</ele>
        <time>2016-05-01T09:00:41Z</time>
      </trkpt>
      <trkpt lat="47.42702" lon="0.70817">
        <ele>102.5</ele>
        <time>2016-05-01T09:00:45Z</time>
      </trkpt>
      <trkpt lat="47.42691" lon="0.70818">
        <ele>102.6</ele>
        <time>2016-05-01T09:00:49Z</time>
      </trkpt>
      <trkpt lat="47.4268" lon="0.70822">
        <ele>102.7</ele>
        <time>2016-05-01T09:00:53Z</time>
      </trkpt>
      <trkpt lat="47.4267" lon="0.70831">
        <ele>102.9</ele>
        <time>2016-05-01T09:00:57Z</time>
      </trkpt>
      <trkpt lat="47.42661" lon="0.70841">
        <ele>103.1</ele>
        <time>2016-05-01T09:01:01Z</time>
      </trkpt>
      <trkpt lat="47.42653" lon="0.7085">
        <ele>103.4</ele>
        <time>2016-05-01T09:01:05Z</time>
      </trkpt>
      <trkpt lat="47.42644" lon="0.7086">
        <ele>103.5</ele>
        <time>2016-05-01T09:01:09Z</time>
      </trkpt>
      <trkpt lat="47.42635" lon="0.7087">
        <ele>103.7</ele>
        <time>2016-05-01T09:01:13Z</time>
      </trkpt>
      <trkpt lat="47.42627" lon="0.70878">
        <ele>103.9</ele>
        <time>2016-05-01T09:01:16Z</time>
      </trkpt>
      <trkpt lat="47.42618" lon="0.70886">
        <ele>104.1</ele>
        <time>2016-05-01T09:01:19Z</time>
      </trkpt>
      <trkpt lat="47.4261" lon="0.70893">
        <ele>104.3</ele>
        <time>2016-05-01T09:01:22Z</time>
      </trkpt>
      <trkpt lat="47.42599" lon="0.70902">
        <ele>104.5</ele>
        <time>2016-05-01T09:01:26Z</time>
      </trkpt>
      <trkpt lat="47.42589" lon="0.70912">
        <ele>104.7</ele>
        <time>2016-05-01T09:01:30Z</time>
      </trkpt>
      <trkpt lat="47.42581" lon="0.7092">
        <ele>105</ele>
        <time>2016-05-01T09:01:33Z</time>
      </trkpt>
      <trkpt lat="47.42571" lon="0.70927">
        <ele>105.2</ele>
        <time>2016-05-01T09:01:36Z</time>
      </trkpt>
      <trkpt lat="47.42562" lon="0.70934">
        <ele>105.4</ele>
        <time>2016-05-01T09:01:39Z</time>
      </trkpt>
      <trkpt lat="47.42553" lon="0.70941">
        <ele>105.5</ele>
        <time>2016-05-01T09:01:42Z</time>
      </trkpt>
      <trkpt lat="47.42543" lon="0.70946">
        <ele>105.5</ele>
        <time>2016-05-01T09:01:45Z</time>
      </trkpt>
      <trkpt lat="47.42534" lon="0.70952">
        <ele>105.6</ele>
        <time>2016-05-01T09:01:48Z</time>
      </trkpt>
      <trkpt lat="47.42525" lon="0.70954">
        <ele>105.7</ele>
        <time>2016-05-01T09:01:51Z</time>
      </trkpt>
      <trkpt lat="47.42516" lon="0.70953">
        <ele>105.8</ele>
        <time>2016-05-01T09:01:54Z</time>
      </trkpt>
      <trkpt lat="47.42504" lon="0.70953">
        <ele>105.8</ele>
        <time>2016-05-01T09:01:58Z</time>
      </trkpt>
      <trkpt lat="47.42495" lon="0.70952">
        <ele>105.8</ele>
        <time>2016-05-01T09:02:01Z</time>
      </trkpt>
      <trkpt lat="47.42486" lon="0.7095">
        <ele>105.7</ele>
        <time>2016-05-01T09:02:04Z</time>
      </trkpt>
      <trkpt lat="47.42477" lon="0.70948">
        <ele>105.6</ele>
        <time>2016-05-01T09:02:07Z</time>
      </trkpt>
      <trkpt lat="47.42467" lon="0.70947">
        <ele>105.6</ele>
        <time>2016-05-01T09:02:10Z</time>
      </trkpt>
      <trkpt lat="47.42458" lon="0.70946">
        <ele>105.6</ele>
        <time>2016-05-01T09:02:13Z</time>
      </trkpt>
      <trkpt lat="47.42449" lon="0.70946">
        <ele>105.5</ele>
        <time>2016-05-01T09:02:16Z</time>
      </trkpt>
      <trkpt lat="47.42437" lon="0.70947">
        <ele>105.4</ele>
        <time>2016-05-01T09:02:19Z</time>
      </trkpt>
      <trkpt lat="47.4243" lon="0.70946">
        <ele>105.3</ele>
        <time>2016-05-01T09:02:24Z</time>
      </trkpt>
    </trkseg>
  </trk>
</gpx>